<?xml version="1.0" encoding="UTF-8" standalone="no" ?>
<gpx xmlns="http://www.topografix.com/GPX/1/1" xmlns:xsi="http://www.w3.org/2001/XMLSchema-instance" xsi:schemaLocation="http://www.topografix.com/GPX/1/1 http://www.topografix.com/GPX/1/1/gpx.xsd" version="1.1" creator="VisuGPX - https://www.visugpx.com">
  <metadata>
    <name>rdo_2023_etape4</name>
  </metadata>
  <trk>
    <name><![CDATA[rdo_2023_etape4_1]]></name>
    <trkseg>
      <trkpt lat="49.66918" lon="1.94733">
        <ele>190.9</ele>
      </trkpt>
    </trkseg>
  </trk>
  <trk>
    <name><![CDATA[RDO2023 - Etape4-16601970]]></name>
    <extensions>
      <line xmlns="http://www.topografix.com/GPX/gpx_style/0/2">
        <color>00FF00</color>
        <width>4</width>
      </line>
    </extensions>
    <trkseg>
      <trkpt lat="49.66494" lon="1.94077">
        <ele>197</ele>
        <time>2023-05-22T13:15:13Z</time>
      </trkpt>
      <trkpt lat="49.66474" lon="1.94043">
        <ele>197</ele>
        <time>2023-05-22T13:15:18Z</time>
      </trkpt>
      <trkpt lat="49.66455" lon="1.94007">
        <ele>197</ele>
        <time>2023-05-22T13:15:24Z</time>
      </trkpt>
      <trkpt lat="49.66449" lon="1.9399">
        <ele>197</ele>
        <time>2023-05-22T13:15:26Z</time>
      </trkpt>
      <trkpt lat="49.66452" lon="1.93981">
        <ele>197</ele>
        <time>2023-05-22T13:15:27Z</time>
      </trkpt>
      <trkpt lat="49.6645" lon="1.9397">
        <ele>197</ele>
        <time>2023-05-22T13:15:28Z</time>
      </trkpt>
      <trkpt lat="49.66445" lon="1.93964">
        <ele>197</ele>
        <time>2023-05-22T13:15:29Z</time>
      </trkpt>
      <trkpt lat="49.66441" lon="1.93963">
        <ele>197</ele>
        <time>2023-05-22T13:15:30Z</time>
      </trkpt>
      <trkpt lat="49.66436" lon="1.93967">
        <ele>197</ele>
        <time>2023-05-22T13:15:31Z</time>
      </trkpt>
      <trkpt lat="49.6639" lon="1.93834">
        <ele>196</ele>
        <time>2023-05-22T13:15:49Z</time>
      </trkpt>
      <trkpt lat="49.66384" lon="1.93795">
        <ele>196</ele>
        <time>2023-05-22T13:15:53Z</time>
      </trkpt>
      <trkpt lat="49.66382" lon="1.93765">
        <ele>196</ele>
        <time>2023-05-22T13:15:57Z</time>
      </trkpt>
      <trkpt lat="49.66383" lon="1.9361">
        <ele>196</ele>
        <time>2023-05-22T13:16:15Z</time>
      </trkpt>
      <trkpt lat="49.66373" lon="1.93585">
        <ele>195</ele>
        <time>2023-05-22T13:16:18Z</time>
      </trkpt>
      <trkpt lat="49.66356" lon="1.9356">
        <ele>195</ele>
        <time>2023-05-22T13:16:22Z</time>
      </trkpt>
      <trkpt lat="49.66339" lon="1.93539">
        <ele>196</ele>
        <time>2023-05-22T13:16:26Z</time>
      </trkpt>
      <trkpt lat="49.66254" lon="1.93456">
        <ele>194</ele>
        <time>2023-05-22T13:16:44Z</time>
      </trkpt>
      <trkpt lat="49.66221" lon="1.93411">
        <ele>194</ele>
        <time>2023-05-22T13:16:52Z</time>
      </trkpt>
      <trkpt lat="49.66194" lon="1.93362">
        <ele>194</ele>
        <time>2023-05-22T13:16:59Z</time>
      </trkpt>
      <trkpt lat="49.66154" lon="1.93253">
        <ele>197</ele>
        <time>2023-05-22T13:17:14Z</time>
      </trkpt>
      <trkpt lat="49.66138" lon="1.9318">
        <ele>196</ele>
        <time>2023-05-22T13:17:22Z</time>
      </trkpt>
      <trkpt lat="49.66119" lon="1.93031">
        <ele>197</ele>
        <time>2023-05-22T13:17:40Z</time>
      </trkpt>
      <trkpt lat="49.66102" lon="1.92938">
        <ele>197</ele>
        <time>2023-05-22T13:17:51Z</time>
      </trkpt>
      <trkpt lat="49.66093" lon="1.92874">
        <ele>196</ele>
        <time>2023-05-22T13:17:59Z</time>
      </trkpt>
      <trkpt lat="49.66056" lon="1.92866">
        <ele>195</ele>
        <time>2023-05-22T13:18:05Z</time>
      </trkpt>
      <trkpt lat="49.66041" lon="1.92859">
        <ele>195</ele>
        <time>2023-05-22T13:18:08Z</time>
      </trkpt>
      <trkpt lat="49.66023" lon="1.92844">
        <ele>195</ele>
        <time>2023-05-22T13:18:12Z</time>
      </trkpt>
      <trkpt lat="49.66009" lon="1.92829">
        <ele>194</ele>
        <time>2023-05-22T13:18:15Z</time>
      </trkpt>
      <trkpt lat="49.6592" lon="1.92733">
        <ele>195</ele>
        <time>2023-05-22T13:18:34Z</time>
      </trkpt>
      <trkpt lat="49.65857" lon="1.92681">
        <ele>195</ele>
        <time>2023-05-22T13:18:47Z</time>
      </trkpt>
      <trkpt lat="49.65792" lon="1.92633">
        <ele>196</ele>
        <time>2023-05-22T13:18:59Z</time>
      </trkpt>
      <trkpt lat="49.65739" lon="1.92598">
        <ele>198</ele>
        <time>2023-05-22T13:19:10Z</time>
      </trkpt>
      <trkpt lat="49.65698" lon="1.92581">
        <ele>199</ele>
        <time>2023-05-22T13:19:17Z</time>
      </trkpt>
      <trkpt lat="49.65688" lon="1.92656">
        <ele>199</ele>
        <time>2023-05-22T13:19:26Z</time>
      </trkpt>
      <trkpt lat="49.65632" lon="1.9305">
        <ele>195</ele>
        <time>2023-05-22T13:20:13Z</time>
      </trkpt>
      <trkpt lat="49.65625" lon="1.93078">
        <ele>195</ele>
        <time>2023-05-22T13:20:16Z</time>
      </trkpt>
      <trkpt lat="49.65573" lon="1.93302">
        <ele>197</ele>
        <time>2023-05-22T13:20:43Z</time>
      </trkpt>
      <trkpt lat="49.65515" lon="1.93535">
        <ele>197</ele>
        <time>2023-05-22T13:21:12Z</time>
      </trkpt>
      <trkpt lat="49.65502" lon="1.93585">
        <ele>197</ele>
        <time>2023-05-22T13:21:18Z</time>
      </trkpt>
      <trkpt lat="49.65494" lon="1.9363">
        <ele>198</ele>
        <time>2023-05-22T13:21:24Z</time>
      </trkpt>
      <trkpt lat="49.65404" lon="1.94001">
        <ele>190</ele>
        <time>2023-05-22T13:22:09Z</time>
      </trkpt>
      <trkpt lat="49.65214" lon="1.94749">
        <ele>192</ele>
        <time>2023-05-22T13:23:42Z</time>
      </trkpt>
      <trkpt lat="49.65203" lon="1.94774">
        <ele>192</ele>
        <time>2023-05-22T13:23:45Z</time>
      </trkpt>
      <trkpt lat="49.65149" lon="1.94847">
        <ele>192</ele>
        <time>2023-05-22T13:23:58Z</time>
      </trkpt>
      <trkpt lat="49.65088" lon="1.94923">
        <ele>193</ele>
        <time>2023-05-22T13:24:12Z</time>
      </trkpt>
      <trkpt lat="49.65061" lon="1.94941">
        <ele>193</ele>
        <time>2023-05-22T13:24:17Z</time>
      </trkpt>
      <trkpt lat="49.64898" lon="1.94933">
        <ele>195</ele>
        <time>2023-05-22T13:24:46Z</time>
      </trkpt>
      <trkpt lat="49.64835" lon="1.94946">
        <ele>196</ele>
        <time>2023-05-22T13:24:58Z</time>
      </trkpt>
      <trkpt lat="49.64784" lon="1.94983">
        <ele>195</ele>
        <time>2023-05-22T13:25:08Z</time>
      </trkpt>
      <trkpt lat="49.64727" lon="1.95043">
        <ele>194</ele>
        <time>2023-05-22T13:25:20Z</time>
      </trkpt>
      <trkpt lat="49.64533" lon="1.95406">
        <ele>192</ele>
        <time>2023-05-22T13:26:14Z</time>
      </trkpt>
      <trkpt lat="49.64402" lon="1.9564">
        <ele>190</ele>
        <time>2023-05-22T13:26:50Z</time>
      </trkpt>
      <trkpt lat="49.64289" lon="1.95767">
        <ele>193</ele>
        <time>2023-05-22T13:27:15Z</time>
      </trkpt>
      <trkpt lat="49.6427" lon="1.95792">
        <ele>192</ele>
        <time>2023-05-22T13:27:19Z</time>
      </trkpt>
      <trkpt lat="49.64247" lon="1.95832">
        <ele>192</ele>
        <time>2023-05-22T13:27:25Z</time>
      </trkpt>
      <trkpt lat="49.6424" lon="1.95849">
        <ele>192</ele>
        <time>2023-05-22T13:27:28Z</time>
      </trkpt>
      <trkpt lat="49.64225" lon="1.95893">
        <ele>192</ele>
        <time>2023-05-22T13:27:33Z</time>
      </trkpt>
      <trkpt lat="49.64194" lon="1.96019">
        <ele>191</ele>
        <time>2023-05-22T13:27:49Z</time>
      </trkpt>
      <trkpt lat="49.64177" lon="1.96064">
        <ele>190</ele>
        <time>2023-05-22T13:27:55Z</time>
      </trkpt>
      <trkpt lat="49.64165" lon="1.9609">
        <ele>190</ele>
        <time>2023-05-22T13:27:59Z</time>
      </trkpt>
      <trkpt lat="49.64001" lon="1.96328">
        <ele>189</ele>
        <time>2023-05-22T13:28:39Z</time>
      </trkpt>
      <trkpt lat="49.63921" lon="1.96463">
        <ele>189</ele>
        <time>2023-05-22T13:29:00Z</time>
      </trkpt>
      <trkpt lat="49.639" lon="1.96489">
        <ele>189</ele>
        <time>2023-05-22T13:29:05Z</time>
      </trkpt>
      <trkpt lat="49.63873" lon="1.96514">
        <ele>189</ele>
        <time>2023-05-22T13:29:10Z</time>
      </trkpt>
      <trkpt lat="49.63848" lon="1.96542">
        <ele>188</ele>
        <time>2023-05-22T13:29:16Z</time>
      </trkpt>
      <trkpt lat="49.63831" lon="1.96568">
        <ele>188</ele>
        <time>2023-05-22T13:29:20Z</time>
      </trkpt>
      <trkpt lat="49.63806" lon="1.96619">
        <ele>189</ele>
        <time>2023-05-22T13:29:27Z</time>
      </trkpt>
      <trkpt lat="49.63798" lon="1.9663">
        <ele>189</ele>
        <time>2023-05-22T13:29:29Z</time>
      </trkpt>
      <trkpt lat="49.63781" lon="1.96645">
        <ele>189</ele>
        <time>2023-05-22T13:29:33Z</time>
      </trkpt>
      <trkpt lat="49.63712" lon="1.96686">
        <ele>190</ele>
        <time>2023-05-22T13:29:46Z</time>
      </trkpt>
      <trkpt lat="49.6368" lon="1.96711">
        <ele>190</ele>
        <time>2023-05-22T13:29:52Z</time>
      </trkpt>
      <trkpt lat="49.63582" lon="1.96802">
        <ele>188</ele>
        <time>2023-05-22T13:30:13Z</time>
      </trkpt>
      <trkpt lat="49.63559" lon="1.96827">
        <ele>187</ele>
        <time>2023-05-22T13:30:18Z</time>
      </trkpt>
      <trkpt lat="49.63545" lon="1.96849">
        <ele>187</ele>
        <time>2023-05-22T13:30:21Z</time>
      </trkpt>
      <trkpt lat="49.63459" lon="1.97039">
        <ele>187</ele>
        <time>2023-05-22T13:30:48Z</time>
      </trkpt>
      <trkpt lat="49.63335" lon="1.97168">
        <ele>186</ele>
        <time>2023-05-22T13:31:14Z</time>
      </trkpt>
      <trkpt lat="49.63235" lon="1.97294">
        <ele>186</ele>
        <time>2023-05-22T13:31:37Z</time>
      </trkpt>
      <trkpt lat="49.63171" lon="1.97408">
        <ele>185</ele>
        <time>2023-05-22T13:31:55Z</time>
      </trkpt>
      <trkpt lat="49.6315" lon="1.97439">
        <ele>185</ele>
        <time>2023-05-22T13:32:00Z</time>
      </trkpt>
      <trkpt lat="49.63028" lon="1.97554">
        <ele>184</ele>
        <time>2023-05-22T13:32:25Z</time>
      </trkpt>
      <trkpt lat="49.62715" lon="1.97863">
        <ele>182</ele>
        <time>2023-05-22T13:33:31Z</time>
      </trkpt>
      <trkpt lat="49.62611" lon="1.97942">
        <ele>182</ele>
        <time>2023-05-22T13:33:52Z</time>
      </trkpt>
      <trkpt lat="49.62458" lon="1.98045">
        <ele>180</ele>
        <time>2023-05-22T13:34:22Z</time>
      </trkpt>
      <trkpt lat="49.62376" lon="1.98129">
        <ele>177</ele>
        <time>2023-05-22T13:34:39Z</time>
      </trkpt>
      <trkpt lat="49.62301" lon="1.98256">
        <ele>175</ele>
        <time>2023-05-22T13:34:59Z</time>
      </trkpt>
      <trkpt lat="49.62217" lon="1.98341">
        <ele>173</ele>
        <time>2023-05-22T13:35:17Z</time>
      </trkpt>
      <trkpt lat="49.62048" lon="1.98522">
        <ele>183</ele>
        <time>2023-05-22T13:35:54Z</time>
      </trkpt>
      <trkpt lat="49.6192" lon="1.98569">
        <ele>188</ele>
        <time>2023-05-22T13:36:17Z</time>
      </trkpt>
      <trkpt lat="49.61814" lon="1.98614">
        <ele>193</ele>
        <time>2023-05-22T13:36:37Z</time>
      </trkpt>
      <trkpt lat="49.61725" lon="1.98631">
        <ele>191</ele>
        <time>2023-05-22T13:36:53Z</time>
      </trkpt>
      <trkpt lat="49.61634" lon="1.98698">
        <ele>186</ele>
        <time>2023-05-22T13:37:10Z</time>
      </trkpt>
      <trkpt lat="49.61559" lon="1.98796">
        <ele>183</ele>
        <time>2023-05-22T13:37:28Z</time>
      </trkpt>
      <trkpt lat="49.61361" lon="1.99024">
        <ele>181</ele>
        <time>2023-05-22T13:38:12Z</time>
      </trkpt>
      <trkpt lat="49.6117" lon="1.99234">
        <ele>181</ele>
        <time>2023-05-22T13:38:54Z</time>
      </trkpt>
      <trkpt lat="49.6107" lon="1.99327">
        <ele>182</ele>
        <time>2023-05-22T13:39:14Z</time>
      </trkpt>
      <trkpt lat="49.61033" lon="1.99368">
        <ele>183</ele>
        <time>2023-05-22T13:39:23Z</time>
      </trkpt>
      <trkpt lat="49.60986" lon="1.9943">
        <ele>185</ele>
        <time>2023-05-22T13:39:34Z</time>
      </trkpt>
      <trkpt lat="49.60854" lon="1.9957">
        <ele>187</ele>
        <time>2023-05-22T13:40:02Z</time>
      </trkpt>
      <trkpt lat="49.6084" lon="1.99583">
        <ele>187</ele>
        <time>2023-05-22T13:40:05Z</time>
      </trkpt>
      <trkpt lat="49.60865" lon="1.99585">
        <ele>187</ele>
        <time>2023-05-22T13:40:09Z</time>
      </trkpt>
      <trkpt lat="49.60877" lon="1.99591">
        <ele>187</ele>
        <time>2023-05-22T13:40:12Z</time>
      </trkpt>
      <trkpt lat="49.61044" lon="1.99688">
        <ele>187</ele>
        <time>2023-05-22T13:40:43Z</time>
      </trkpt>
      <trkpt lat="49.61127" lon="1.99728">
        <ele>187</ele>
        <time>2023-05-22T13:40:59Z</time>
      </trkpt>
      <trkpt lat="49.61361" lon="1.99859">
        <ele>189</ele>
        <time>2023-05-22T13:41:43Z</time>
      </trkpt>
      <trkpt lat="49.6143" lon="1.99892">
        <ele>189</ele>
        <time>2023-05-22T13:41:56Z</time>
      </trkpt>
      <trkpt lat="49.61537" lon="1.99919">
        <ele>192</ele>
        <time>2023-05-22T13:42:15Z</time>
      </trkpt>
      <trkpt lat="49.61571" lon="1.99934">
        <ele>194</ele>
        <time>2023-05-22T13:42:22Z</time>
      </trkpt>
      <trkpt lat="49.6163" lon="1.99995">
        <ele>196</ele>
        <time>2023-05-22T13:42:34Z</time>
      </trkpt>
      <trkpt lat="49.61747" lon="2.00132">
        <ele>198</ele>
        <time>2023-05-22T13:43:00Z</time>
      </trkpt>
      <trkpt lat="49.61798" lon="2.00175">
        <ele>196</ele>
        <time>2023-05-22T13:43:11Z</time>
      </trkpt>
      <trkpt lat="49.61857" lon="2.00211">
        <ele>194</ele>
        <time>2023-05-22T13:43:22Z</time>
      </trkpt>
      <trkpt lat="49.61903" lon="2.00245">
        <ele>189</ele>
        <time>2023-05-22T13:43:31Z</time>
      </trkpt>
      <trkpt lat="49.61987" lon="2.00343">
        <ele>184</ele>
        <time>2023-05-22T13:43:50Z</time>
      </trkpt>
      <trkpt lat="49.62034" lon="2.00408">
        <ele>182</ele>
        <time>2023-05-22T13:44:01Z</time>
      </trkpt>
      <trkpt lat="49.62085" lon="2.00492">
        <ele>181</ele>
        <time>2023-05-22T13:44:14Z</time>
      </trkpt>
      <trkpt lat="49.62135" lon="2.00557">
        <ele>181</ele>
        <time>2023-05-22T13:44:26Z</time>
      </trkpt>
      <trkpt lat="49.623" lon="2.0078">
        <ele>180</ele>
        <time>2023-05-22T13:45:05Z</time>
      </trkpt>
      <trkpt lat="49.62385" lon="2.00886">
        <ele>181</ele>
        <time>2023-05-22T13:45:24Z</time>
      </trkpt>
      <trkpt lat="49.62453" lon="2.00964">
        <ele>180</ele>
        <time>2023-05-22T13:45:39Z</time>
      </trkpt>
      <trkpt lat="49.62497" lon="2.01026">
        <ele>180</ele>
        <time>2023-05-22T13:45:50Z</time>
      </trkpt>
      <trkpt lat="49.62509" lon="2.0109">
        <ele>179</ele>
        <time>2023-05-22T13:45:58Z</time>
      </trkpt>
      <trkpt lat="49.6252" lon="2.01129">
        <ele>178</ele>
        <time>2023-05-22T13:46:03Z</time>
      </trkpt>
      <trkpt lat="49.62566" lon="2.01222">
        <ele>177</ele>
        <time>2023-05-22T13:46:16Z</time>
      </trkpt>
      <trkpt lat="49.62611" lon="2.0134">
        <ele>176</ele>
        <time>2023-05-22T13:46:32Z</time>
      </trkpt>
      <trkpt lat="49.62633" lon="2.0146">
        <ele>176</ele>
        <time>2023-05-22T13:46:46Z</time>
      </trkpt>
      <trkpt lat="49.62642" lon="2.02172">
        <ele>174</ele>
        <time>2023-05-22T13:48:08Z</time>
      </trkpt>
      <trkpt lat="49.62655" lon="2.02695">
        <ele>178</ele>
        <time>2023-05-22T13:49:09Z</time>
      </trkpt>
      <trkpt lat="49.62657" lon="2.02817">
        <ele>179</ele>
        <time>2023-05-22T13:49:23Z</time>
      </trkpt>
      <trkpt lat="49.62661" lon="2.02833">
        <ele>179</ele>
        <time>2023-05-22T13:49:25Z</time>
      </trkpt>
      <trkpt lat="49.62712" lon="2.02947">
        <ele>181</ele>
        <time>2023-05-22T13:49:41Z</time>
      </trkpt>
      <trkpt lat="49.62727" lon="2.03006">
        <ele>182</ele>
        <time>2023-05-22T13:49:48Z</time>
      </trkpt>
      <trkpt lat="49.62745" lon="2.03101">
        <ele>182</ele>
        <time>2023-05-22T13:49:59Z</time>
      </trkpt>
      <trkpt lat="49.62765" lon="2.03235">
        <ele>180</ele>
        <time>2023-05-22T13:50:15Z</time>
      </trkpt>
      <trkpt lat="49.62828" lon="2.0318">
        <ele>180</ele>
        <time>2023-05-22T13:50:28Z</time>
      </trkpt>
      <trkpt lat="49.62966" lon="2.0305">
        <ele>177</ele>
        <time>2023-05-22T13:50:57Z</time>
      </trkpt>
      <trkpt lat="49.62988" lon="2.03017">
        <ele>177</ele>
        <time>2023-05-22T13:51:02Z</time>
      </trkpt>
      <trkpt lat="49.63005" lon="2.02973">
        <ele>177</ele>
        <time>2023-05-22T13:51:08Z</time>
      </trkpt>
      <trkpt lat="49.63058" lon="2.02775">
        <ele>177</ele>
        <time>2023-05-22T13:51:33Z</time>
      </trkpt>
      <trkpt lat="49.63117" lon="2.02531">
        <ele>179</ele>
        <time>2023-05-22T13:52:03Z</time>
      </trkpt>
      <trkpt lat="49.63148" lon="2.02412">
        <ele>181</ele>
        <time>2023-05-22T13:52:18Z</time>
      </trkpt>
      <trkpt lat="49.63219" lon="2.02207">
        <ele>180</ele>
        <time>2023-05-22T13:52:45Z</time>
      </trkpt>
      <trkpt lat="49.63539" lon="2.01443">
        <ele>176</ele>
        <time>2023-05-22T13:54:29Z</time>
      </trkpt>
      <trkpt lat="49.64033" lon="2.0025">
        <ele>179</ele>
        <time>2023-05-22T13:57:13Z</time>
      </trkpt>
      <trkpt lat="49.64595" lon="1.98909">
        <ele>181</ele>
        <time>2023-05-22T14:00:17Z</time>
      </trkpt>
      <trkpt lat="49.64619" lon="1.9885">
        <ele>182</ele>
        <time>2023-05-22T14:00:25Z</time>
      </trkpt>
      <trkpt lat="49.64626" lon="1.98858">
        <ele>182</ele>
        <time>2023-05-22T14:00:26Z</time>
      </trkpt>
      <trkpt lat="49.64629" lon="1.98869">
        <ele>182</ele>
        <time>2023-05-22T14:00:28Z</time>
      </trkpt>
      <trkpt lat="49.64655" lon="1.98988">
        <ele>183</ele>
        <time>2023-05-22T14:00:42Z</time>
      </trkpt>
      <trkpt lat="49.64665" lon="1.99071">
        <ele>183</ele>
        <time>2023-05-22T14:00:52Z</time>
      </trkpt>
      <trkpt lat="49.64679" lon="1.9911">
        <ele>183</ele>
        <time>2023-05-22T14:00:57Z</time>
      </trkpt>
      <trkpt lat="49.64698" lon="1.99129">
        <ele>183</ele>
        <time>2023-05-22T14:01:01Z</time>
      </trkpt>
      <trkpt lat="49.64764" lon="1.99128">
        <ele>182</ele>
        <time>2023-05-22T14:01:13Z</time>
      </trkpt>
      <trkpt lat="49.64816" lon="1.99114">
        <ele>181</ele>
        <time>2023-05-22T14:01:22Z</time>
      </trkpt>
      <trkpt lat="49.64843" lon="1.99138">
        <ele>181</ele>
        <time>2023-05-22T14:01:28Z</time>
      </trkpt>
      <trkpt lat="49.64866" lon="1.99136">
        <ele>180</ele>
        <time>2023-05-22T14:01:32Z</time>
      </trkpt>
      <trkpt lat="49.64895" lon="1.99121">
        <ele>179</ele>
        <time>2023-05-22T14:01:37Z</time>
      </trkpt>
      <trkpt lat="49.64959" lon="1.99076">
        <ele>176</ele>
        <time>2023-05-22T14:01:50Z</time>
      </trkpt>
      <trkpt lat="49.65016" lon="1.99045">
        <ele>175</ele>
        <time>2023-05-22T14:02:00Z</time>
      </trkpt>
      <trkpt lat="49.65148" lon="1.99033">
        <ele>176</ele>
        <time>2023-05-22T14:02:24Z</time>
      </trkpt>
      <trkpt lat="49.6523" lon="1.99009">
        <ele>178</ele>
        <time>2023-05-22T14:02:39Z</time>
      </trkpt>
      <trkpt lat="49.65298" lon="1.99007">
        <ele>178</ele>
        <time>2023-05-22T14:02:51Z</time>
      </trkpt>
      <trkpt lat="49.65371" lon="1.99023">
        <ele>177</ele>
        <time>2023-05-22T14:03:04Z</time>
      </trkpt>
      <trkpt lat="49.65428" lon="1.99042">
        <ele>175</ele>
        <time>2023-05-22T14:03:14Z</time>
      </trkpt>
      <trkpt lat="49.65487" lon="1.99075">
        <ele>172</ele>
        <time>2023-05-22T14:03:26Z</time>
      </trkpt>
      <trkpt lat="49.65572" lon="1.99101">
        <ele>169</ele>
        <time>2023-05-22T14:03:41Z</time>
      </trkpt>
      <trkpt lat="49.65653" lon="1.99117">
        <ele>168</ele>
        <time>2023-05-22T14:03:55Z</time>
      </trkpt>
      <trkpt lat="49.65696" lon="1.99145">
        <ele>169</ele>
        <time>2023-05-22T14:04:04Z</time>
      </trkpt>
      <trkpt lat="49.65847" lon="1.99146">
        <ele>178</ele>
        <time>2023-05-22T14:04:31Z</time>
      </trkpt>
      <trkpt lat="49.66005" lon="1.99119">
        <ele>180</ele>
        <time>2023-05-22T14:04:59Z</time>
      </trkpt>
      <trkpt lat="49.66016" lon="1.99114">
        <ele>180</ele>
        <time>2023-05-22T14:05:01Z</time>
      </trkpt>
      <trkpt lat="49.66162" lon="1.99074">
        <ele>181</ele>
        <time>2023-05-22T14:05:27Z</time>
      </trkpt>
      <trkpt lat="49.66209" lon="1.99089">
        <ele>180</ele>
        <time>2023-05-22T14:05:36Z</time>
      </trkpt>
      <trkpt lat="49.66237" lon="1.99104">
        <ele>180</ele>
        <time>2023-05-22T14:05:41Z</time>
      </trkpt>
      <trkpt lat="49.66284" lon="1.99106">
        <ele>180</ele>
        <time>2023-05-22T14:05:50Z</time>
      </trkpt>
      <trkpt lat="49.66358" lon="1.99103">
        <ele>179</ele>
        <time>2023-05-22T14:06:03Z</time>
      </trkpt>
      <trkpt lat="49.66429" lon="1.99136">
        <ele>179</ele>
        <time>2023-05-22T14:06:16Z</time>
      </trkpt>
      <trkpt lat="49.66497" lon="1.99122">
        <ele>180</ele>
        <time>2023-05-22T14:06:28Z</time>
      </trkpt>
      <trkpt lat="49.66574" lon="1.99099">
        <ele>181</ele>
        <time>2023-05-22T14:06:42Z</time>
      </trkpt>
      <trkpt lat="49.66666" lon="1.99121">
        <ele>183</ele>
        <time>2023-05-22T14:06:59Z</time>
      </trkpt>
      <trkpt lat="49.66767" lon="1.99138">
        <ele>184</ele>
        <time>2023-05-22T14:07:17Z</time>
      </trkpt>
      <trkpt lat="49.66921" lon="1.99126">
        <ele>183</ele>
        <time>2023-05-22T14:07:44Z</time>
      </trkpt>
      <trkpt lat="49.6701" lon="1.99132">
        <ele>182</ele>
        <time>2023-05-22T14:08:00Z</time>
      </trkpt>
      <trkpt lat="49.671" lon="1.99143">
        <ele>181</ele>
        <time>2023-05-22T14:08:16Z</time>
      </trkpt>
      <trkpt lat="49.67243" lon="1.99133">
        <ele>180</ele>
        <time>2023-05-22T14:08:42Z</time>
      </trkpt>
      <trkpt lat="49.67429" lon="1.9919">
        <ele>184</ele>
        <time>2023-05-22T14:09:15Z</time>
      </trkpt>
      <trkpt lat="49.67587" lon="1.99201">
        <ele>183</ele>
        <time>2023-05-22T14:09:43Z</time>
      </trkpt>
      <trkpt lat="49.6761" lon="1.99205">
        <ele>182</ele>
        <time>2023-05-22T14:09:47Z</time>
      </trkpt>
      <trkpt lat="49.67765" lon="1.99213">
        <ele>181</ele>
        <time>2023-05-22T14:10:15Z</time>
      </trkpt>
      <trkpt lat="49.67838" lon="1.99184">
        <ele>181</ele>
        <time>2023-05-22T14:10:29Z</time>
      </trkpt>
      <trkpt lat="49.67888" lon="1.99162">
        <ele>182</ele>
        <time>2023-05-22T14:10:38Z</time>
      </trkpt>
      <trkpt lat="49.67896" lon="1.99149">
        <ele>183</ele>
        <time>2023-05-22T14:10:40Z</time>
      </trkpt>
      <trkpt lat="49.67935" lon="1.99049">
        <ele>184</ele>
        <time>2023-05-22T14:10:53Z</time>
      </trkpt>
      <trkpt lat="49.67937" lon="1.99026">
        <ele>183</ele>
        <time>2023-05-22T14:10:56Z</time>
      </trkpt>
      <trkpt lat="49.67929" lon="1.98993">
        <ele>183</ele>
        <time>2023-05-22T14:11:00Z</time>
      </trkpt>
      <trkpt lat="49.68057" lon="1.98753">
        <ele>180</ele>
        <time>2023-05-22T14:11:36Z</time>
      </trkpt>
      <trkpt lat="49.6815" lon="1.98614">
        <ele>179</ele>
        <time>2023-05-22T14:11:59Z</time>
      </trkpt>
      <trkpt lat="49.6817" lon="1.9858">
        <ele>178</ele>
        <time>2023-05-22T14:12:04Z</time>
      </trkpt>
      <trkpt lat="49.68201" lon="1.98544">
        <ele>176</ele>
        <time>2023-05-22T14:12:11Z</time>
      </trkpt>
      <trkpt lat="49.68302" lon="1.98454">
        <ele>171</ele>
        <time>2023-05-22T14:12:32Z</time>
      </trkpt>
      <trkpt lat="49.68354" lon="1.98404">
        <ele>165</ele>
        <time>2023-05-22T14:12:43Z</time>
      </trkpt>
      <trkpt lat="49.68411" lon="1.98343">
        <ele>162</ele>
        <time>2023-05-22T14:12:55Z</time>
      </trkpt>
      <trkpt lat="49.6849" lon="1.98252">
        <ele>166</ele>
        <time>2023-05-22T14:13:13Z</time>
      </trkpt>
      <trkpt lat="49.68556" lon="1.98184">
        <ele>171</ele>
        <time>2023-05-22T14:13:27Z</time>
      </trkpt>
      <trkpt lat="49.68643" lon="1.98062">
        <ele>175</ele>
        <time>2023-05-22T14:13:48Z</time>
      </trkpt>
      <trkpt lat="49.68711" lon="1.97948">
        <ele>179</ele>
        <time>2023-05-22T14:14:05Z</time>
      </trkpt>
      <trkpt lat="49.68729" lon="1.97911">
        <ele>180</ele>
        <time>2023-05-22T14:14:11Z</time>
      </trkpt>
      <trkpt lat="49.68748" lon="1.97872">
        <ele>180</ele>
        <time>2023-05-22T14:14:16Z</time>
      </trkpt>
      <trkpt lat="49.68772" lon="1.9783">
        <ele>180</ele>
        <time>2023-05-22T14:14:23Z</time>
      </trkpt>
      <trkpt lat="49.68777" lon="1.97791">
        <ele>180</ele>
        <time>2023-05-22T14:14:27Z</time>
      </trkpt>
      <trkpt lat="49.68697" lon="1.97689">
        <ele>181</ele>
        <time>2023-05-22T14:14:46Z</time>
      </trkpt>
      <trkpt lat="49.6859" lon="1.97542">
        <ele>181</ele>
        <time>2023-05-22T14:15:11Z</time>
      </trkpt>
      <trkpt lat="49.68546" lon="1.97457">
        <ele>182</ele>
        <time>2023-05-22T14:15:24Z</time>
      </trkpt>
      <trkpt lat="49.68295" lon="1.96791">
        <ele>183</ele>
        <time>2023-05-22T14:16:53Z</time>
      </trkpt>
      <trkpt lat="49.68053" lon="1.96232">
        <ele>186</ele>
        <time>2023-05-22T14:18:10Z</time>
      </trkpt>
      <trkpt lat="49.67961" lon="1.9601">
        <ele>186</ele>
        <time>2023-05-22T14:18:40Z</time>
      </trkpt>
      <trkpt lat="49.67855" lon="1.95825">
        <ele>187</ele>
        <time>2023-05-22T14:19:09Z</time>
      </trkpt>
      <trkpt lat="49.67653" lon="1.9544">
        <ele>186</ele>
        <time>2023-05-22T14:20:06Z</time>
      </trkpt>
      <trkpt lat="49.67623" lon="1.954">
        <ele>186</ele>
        <time>2023-05-22T14:20:13Z</time>
      </trkpt>
      <trkpt lat="49.67568" lon="1.95349">
        <ele>185</ele>
        <time>2023-05-22T14:20:24Z</time>
      </trkpt>
      <trkpt lat="49.67442" lon="1.95262">
        <ele>183</ele>
        <time>2023-05-22T14:20:49Z</time>
      </trkpt>
      <trkpt lat="49.6734" lon="1.95175">
        <ele>179</ele>
        <time>2023-05-22T14:21:10Z</time>
      </trkpt>
      <trkpt lat="49.67312" lon="1.95141">
        <ele>180</ele>
        <time>2023-05-22T14:21:16Z</time>
      </trkpt>
      <trkpt lat="49.67255" lon="1.95061">
        <ele>182</ele>
        <time>2023-05-22T14:21:30Z</time>
      </trkpt>
      <trkpt lat="49.67233" lon="1.95036">
        <ele>183</ele>
        <time>2023-05-22T14:21:34Z</time>
      </trkpt>
      <trkpt lat="49.67202" lon="1.9501">
        <ele>184</ele>
        <time>2023-05-22T14:21:41Z</time>
      </trkpt>
      <trkpt lat="49.67182" lon="1.94998">
        <ele>184</ele>
        <time>2023-05-22T14:21:45Z</time>
      </trkpt>
      <trkpt lat="49.6704" lon="1.94948">
        <ele>186</ele>
        <time>2023-05-22T14:22:10Z</time>
      </trkpt>
      <trkpt lat="49.67002" lon="1.94923">
        <ele>187</ele>
        <time>2023-05-22T14:22:18Z</time>
      </trkpt>
      <trkpt lat="49.66957" lon="1.94872">
        <ele>188</ele>
        <time>2023-05-22T14:22:28Z</time>
      </trkpt>
      <trkpt lat="49.66894" lon="1.94784">
        <ele>190</ele>
        <time>2023-05-22T14:22:43Z</time>
      </trkpt>
      <trkpt lat="49.66828" lon="1.94671">
        <ele>193</ele>
        <time>2023-05-22T14:23:00Z</time>
      </trkpt>
      <trkpt lat="49.66825" lon="1.94662">
        <ele>193</ele>
        <time>2023-05-22T14:23:02Z</time>
      </trkpt>
      <trkpt lat="49.6682" lon="1.94658">
        <ele>193</ele>
        <time>2023-05-22T14:23:03Z</time>
      </trkpt>
      <trkpt lat="49.66815" lon="1.9466">
        <ele>193</ele>
        <time>2023-05-22T14:23:03Z</time>
      </trkpt>
      <trkpt lat="49.66806" lon="1.94641">
        <ele>193</ele>
        <time>2023-05-22T14:23:06Z</time>
      </trkpt>
      <trkpt lat="49.66638" lon="1.94335">
        <ele>195</ele>
        <time>2023-05-22T14:23:52Z</time>
      </trkpt>
      <trkpt lat="49.66584" lon="1.94243">
        <ele>195</ele>
        <time>2023-05-22T14:24:07Z</time>
      </trkpt>
      <trkpt lat="49.66597" lon="1.94227">
        <ele>195</ele>
        <time>2023-05-22T14:24:10Z</time>
      </trkpt>
      <trkpt lat="49.66584" lon="1.94243">
        <ele>195</ele>
        <time>2023-05-22T14:24:13Z</time>
      </trkpt>
      <trkpt lat="49.66523" lon="1.94133">
        <ele>196</ele>
        <time>2023-05-22T14:24:29Z</time>
      </trkpt>
      <trkpt lat="49.66518" lon="1.94123">
        <ele>196</ele>
        <time>2023-05-22T14:24:31Z</time>
      </trkpt>
      <trkpt lat="49.66515" lon="1.94107">
        <ele>197</ele>
        <time>2023-05-22T14:24:33Z</time>
      </trkpt>
      <trkpt lat="49.6651" lon="1.94103">
        <ele>197</ele>
        <time>2023-05-22T14:24:34Z</time>
      </trkpt>
      <trkpt lat="49.66474" lon="1.94043">
        <ele>197</ele>
        <time>2023-05-22T14:24:43Z</time>
      </trkpt>
      <trkpt lat="49.66455" lon="1.94007">
        <ele>197</ele>
        <time>2023-05-22T14:24:48Z</time>
      </trkpt>
      <trkpt lat="49.66449" lon="1.9399">
        <ele>197</ele>
        <time>2023-05-22T14:24:51Z</time>
      </trkpt>
      <trkpt lat="49.66452" lon="1.93981">
        <ele>197</ele>
        <time>2023-05-22T14:24:52Z</time>
      </trkpt>
      <trkpt lat="49.6645" lon="1.9397">
        <ele>197</ele>
        <time>2023-05-22T14:24:53Z</time>
      </trkpt>
      <trkpt lat="49.66445" lon="1.93964">
        <ele>197</ele>
        <time>2023-05-22T14:24:54Z</time>
      </trkpt>
      <trkpt lat="49.66441" lon="1.93963">
        <ele>197</ele>
        <time>2023-05-22T14:24:55Z</time>
      </trkpt>
      <trkpt lat="49.66436" lon="1.93967">
        <ele>197</ele>
        <time>2023-05-22T14:24:56Z</time>
      </trkpt>
      <trkpt lat="49.6639" lon="1.93834">
        <ele>196</ele>
        <time>2023-05-22T14:25:13Z</time>
      </trkpt>
      <trkpt lat="49.66384" lon="1.93795">
        <ele>196</ele>
        <time>2023-05-22T14:25:18Z</time>
      </trkpt>
      <trkpt lat="49.66382" lon="1.93765">
        <ele>196</ele>
        <time>2023-05-22T14:25:21Z</time>
      </trkpt>
      <trkpt lat="49.66383" lon="1.9361">
        <ele>196</ele>
        <time>2023-05-22T14:25:39Z</time>
      </trkpt>
      <trkpt lat="49.66373" lon="1.93585">
        <ele>195</ele>
        <time>2023-05-22T14:25:43Z</time>
      </trkpt>
      <trkpt lat="49.66356" lon="1.9356">
        <ele>195</ele>
        <time>2023-05-22T14:25:47Z</time>
      </trkpt>
      <trkpt lat="49.66339" lon="1.93539">
        <ele>196</ele>
        <time>2023-05-22T14:25:51Z</time>
      </trkpt>
      <trkpt lat="49.66254" lon="1.93456">
        <ele>194</ele>
        <time>2023-05-22T14:26:09Z</time>
      </trkpt>
      <trkpt lat="49.66221" lon="1.93411">
        <ele>194</ele>
        <time>2023-05-22T14:26:16Z</time>
      </trkpt>
      <trkpt lat="49.66194" lon="1.93362">
        <ele>194</ele>
        <time>2023-05-22T14:26:24Z</time>
      </trkpt>
      <trkpt lat="49.66154" lon="1.93253">
        <ele>197</ele>
        <time>2023-05-22T14:26:38Z</time>
      </trkpt>
      <trkpt lat="49.66138" lon="1.9318">
        <ele>196</ele>
        <time>2023-05-22T14:26:47Z</time>
      </trkpt>
      <trkpt lat="49.66119" lon="1.93031">
        <ele>197</ele>
        <time>2023-05-22T14:27:05Z</time>
      </trkpt>
      <trkpt lat="49.66102" lon="1.92938">
        <ele>197</ele>
        <time>2023-05-22T14:27:16Z</time>
      </trkpt>
      <trkpt lat="49.66093" lon="1.92874">
        <ele>196</ele>
        <time>2023-05-22T14:27:23Z</time>
      </trkpt>
      <trkpt lat="49.66056" lon="1.92866">
        <ele>195</ele>
        <time>2023-05-22T14:27:30Z</time>
      </trkpt>
      <trkpt lat="49.66041" lon="1.92859">
        <ele>195</ele>
        <time>2023-05-22T14:27:33Z</time>
      </trkpt>
      <trkpt lat="49.66023" lon="1.92844">
        <ele>195</ele>
        <time>2023-05-22T14:27:36Z</time>
      </trkpt>
      <trkpt lat="49.66009" lon="1.92829">
        <ele>194</ele>
        <time>2023-05-22T14:27:39Z</time>
      </trkpt>
      <trkpt lat="49.6592" lon="1.92733">
        <ele>195</ele>
        <time>2023-05-22T14:27:59Z</time>
      </trkpt>
      <trkpt lat="49.65857" lon="1.92681">
        <ele>195</ele>
        <time>2023-05-22T14:28:12Z</time>
      </trkpt>
      <trkpt lat="49.65792" lon="1.92633">
        <ele>196</ele>
        <time>2023-05-22T14:28:24Z</time>
      </trkpt>
      <trkpt lat="49.65739" lon="1.92598">
        <ele>198</ele>
        <time>2023-05-22T14:28:35Z</time>
      </trkpt>
      <trkpt lat="49.65698" lon="1.92581">
        <ele>199</ele>
        <time>2023-05-22T14:28:42Z</time>
      </trkpt>
      <trkpt lat="49.65662" lon="1.92839">
        <ele>199</ele>
        <time>2023-05-22T14:29:13Z</time>
      </trkpt>
      <trkpt lat="49.65632" lon="1.9305">
        <ele>195</ele>
        <time>2023-05-22T14:29:37Z</time>
      </trkpt>
      <trkpt lat="49.65625" lon="1.93078">
        <ele>195</ele>
        <time>2023-05-22T14:29:41Z</time>
      </trkpt>
      <trkpt lat="49.65573" lon="1.93302">
        <ele>197</ele>
        <time>2023-05-22T14:30:08Z</time>
      </trkpt>
      <trkpt lat="49.65515" lon="1.93535">
        <ele>197</ele>
        <time>2023-05-22T14:30:37Z</time>
      </trkpt>
      <trkpt lat="49.65502" lon="1.93585">
        <ele>197</ele>
        <time>2023-05-22T14:30:43Z</time>
      </trkpt>
      <trkpt lat="49.65494" lon="1.9363">
        <ele>198</ele>
        <time>2023-05-22T14:30:49Z</time>
      </trkpt>
      <trkpt lat="49.65404" lon="1.94001">
        <ele>190</ele>
        <time>2023-05-22T14:31:34Z</time>
      </trkpt>
      <trkpt lat="49.65214" lon="1.94749">
        <ele>192</ele>
        <time>2023-05-22T14:33:07Z</time>
      </trkpt>
      <trkpt lat="49.65203" lon="1.94774">
        <ele>192</ele>
        <time>2023-05-22T14:33:10Z</time>
      </trkpt>
      <trkpt lat="49.65149" lon="1.94847">
        <ele>192</ele>
        <time>2023-05-22T14:33:23Z</time>
      </trkpt>
      <trkpt lat="49.65088" lon="1.94923">
        <ele>193</ele>
        <time>2023-05-22T14:33:37Z</time>
      </trkpt>
      <trkpt lat="49.65061" lon="1.94941">
        <ele>193</ele>
        <time>2023-05-22T14:33:42Z</time>
      </trkpt>
      <trkpt lat="49.64898" lon="1.94933">
        <ele>195</ele>
        <time>2023-05-22T14:34:11Z</time>
      </trkpt>
      <trkpt lat="49.64835" lon="1.94946">
        <ele>196</ele>
        <time>2023-05-22T14:34:23Z</time>
      </trkpt>
      <trkpt lat="49.64784" lon="1.94983">
        <ele>195</ele>
        <time>2023-05-22T14:34:33Z</time>
      </trkpt>
      <trkpt lat="49.64727" lon="1.95043">
        <ele>194</ele>
        <time>2023-05-22T14:34:45Z</time>
      </trkpt>
      <trkpt lat="49.64533" lon="1.95406">
        <ele>192</ele>
        <time>2023-05-22T14:35:39Z</time>
      </trkpt>
      <trkpt lat="49.64402" lon="1.9564">
        <ele>190</ele>
        <time>2023-05-22T14:36:15Z</time>
      </trkpt>
      <trkpt lat="49.64289" lon="1.95767">
        <ele>193</ele>
        <time>2023-05-22T14:36:40Z</time>
      </trkpt>
      <trkpt lat="49.6427" lon="1.95792">
        <ele>192</ele>
        <time>2023-05-22T14:36:44Z</time>
      </trkpt>
      <trkpt lat="49.64247" lon="1.95832">
        <ele>192</ele>
        <time>2023-05-22T14:36:50Z</time>
      </trkpt>
      <trkpt lat="49.6424" lon="1.95849">
        <ele>192</ele>
        <time>2023-05-22T14:36:53Z</time>
      </trkpt>
      <trkpt lat="49.64225" lon="1.95893">
        <ele>192</ele>
        <time>2023-05-22T14:36:58Z</time>
      </trkpt>
      <trkpt lat="49.64194" lon="1.96019">
        <ele>191</ele>
        <time>2023-05-22T14:37:14Z</time>
      </trkpt>
      <trkpt lat="49.64177" lon="1.96064">
        <ele>190</ele>
        <time>2023-05-22T14:37:20Z</time>
      </trkpt>
      <trkpt lat="49.64165" lon="1.9609">
        <ele>190</ele>
        <time>2023-05-22T14:37:23Z</time>
      </trkpt>
      <trkpt lat="49.64001" lon="1.96328">
        <ele>189</ele>
        <time>2023-05-22T14:38:04Z</time>
      </trkpt>
      <trkpt lat="49.63921" lon="1.96463">
        <ele>189</ele>
        <time>2023-05-22T14:38:25Z</time>
      </trkpt>
      <trkpt lat="49.639" lon="1.96489">
        <ele>189</ele>
        <time>2023-05-22T14:38:29Z</time>
      </trkpt>
      <trkpt lat="49.63873" lon="1.96514">
        <ele>189</ele>
        <time>2023-05-22T14:38:35Z</time>
      </trkpt>
      <trkpt lat="49.63848" lon="1.96542">
        <ele>188</ele>
        <time>2023-05-22T14:38:40Z</time>
      </trkpt>
      <trkpt lat="49.63831" lon="1.96568">
        <ele>188</ele>
        <time>2023-05-22T14:38:45Z</time>
      </trkpt>
      <trkpt lat="49.63806" lon="1.96619">
        <ele>189</ele>
        <time>2023-05-22T14:38:52Z</time>
      </trkpt>
      <trkpt lat="49.63798" lon="1.9663">
        <ele>189</ele>
        <time>2023-05-22T14:38:54Z</time>
      </trkpt>
      <trkpt lat="49.63781" lon="1.96645">
        <ele>189</ele>
        <time>2023-05-22T14:38:57Z</time>
      </trkpt>
      <trkpt lat="49.63712" lon="1.96686">
        <ele>190</ele>
        <time>2023-05-22T14:39:11Z</time>
      </trkpt>
      <trkpt lat="49.6368" lon="1.96711">
        <ele>190</ele>
        <time>2023-05-22T14:39:17Z</time>
      </trkpt>
      <trkpt lat="49.63582" lon="1.96802">
        <ele>188</ele>
        <time>2023-05-22T14:39:37Z</time>
      </trkpt>
      <trkpt lat="49.63559" lon="1.96827">
        <ele>187</ele>
        <time>2023-05-22T14:39:42Z</time>
      </trkpt>
      <trkpt lat="49.63545" lon="1.96849">
        <ele>187</ele>
        <time>2023-05-22T14:39:46Z</time>
      </trkpt>
      <trkpt lat="49.63459" lon="1.97039">
        <ele>187</ele>
        <time>2023-05-22T14:40:13Z</time>
      </trkpt>
      <trkpt lat="49.63335" lon="1.97168">
        <ele>186</ele>
        <time>2023-05-22T14:40:39Z</time>
      </trkpt>
      <trkpt lat="49.63235" lon="1.97294">
        <ele>186</ele>
        <time>2023-05-22T14:41:02Z</time>
      </trkpt>
      <trkpt lat="49.63171" lon="1.97408">
        <ele>185</ele>
        <time>2023-05-22T14:41:20Z</time>
      </trkpt>
      <trkpt lat="49.6315" lon="1.97439">
        <ele>185</ele>
        <time>2023-05-22T14:41:25Z</time>
      </trkpt>
      <trkpt lat="49.63028" lon="1.97554">
        <ele>184</ele>
        <time>2023-05-22T14:41:50Z</time>
      </trkpt>
      <trkpt lat="49.62715" lon="1.97863">
        <ele>182</ele>
        <time>2023-05-22T14:42:56Z</time>
      </trkpt>
      <trkpt lat="49.62611" lon="1.97942">
        <ele>182</ele>
        <time>2023-05-22T14:43:17Z</time>
      </trkpt>
      <trkpt lat="49.62458" lon="1.98045">
        <ele>180</ele>
        <time>2023-05-22T14:43:47Z</time>
      </trkpt>
      <trkpt lat="49.62376" lon="1.98129">
        <ele>177</ele>
        <time>2023-05-22T14:44:04Z</time>
      </trkpt>
      <trkpt lat="49.62301" lon="1.98256">
        <ele>175</ele>
        <time>2023-05-22T14:44:24Z</time>
      </trkpt>
      <trkpt lat="49.62217" lon="1.98341">
        <ele>173</ele>
        <time>2023-05-22T14:44:42Z</time>
      </trkpt>
      <trkpt lat="49.62048" lon="1.98522">
        <ele>183</ele>
        <time>2023-05-22T14:45:18Z</time>
      </trkpt>
      <trkpt lat="49.6192" lon="1.98569">
        <ele>188</ele>
        <time>2023-05-22T14:45:42Z</time>
      </trkpt>
      <trkpt lat="49.61814" lon="1.98614">
        <ele>193</ele>
        <time>2023-05-22T14:46:01Z</time>
      </trkpt>
      <trkpt lat="49.61725" lon="1.98631">
        <ele>191</ele>
        <time>2023-05-22T14:46:17Z</time>
      </trkpt>
      <trkpt lat="49.61634" lon="1.98698">
        <ele>186</ele>
        <time>2023-05-22T14:46:35Z</time>
      </trkpt>
      <trkpt lat="49.61559" lon="1.98796">
        <ele>183</ele>
        <time>2023-05-22T14:46:53Z</time>
      </trkpt>
      <trkpt lat="49.61361" lon="1.99024">
        <ele>181</ele>
        <time>2023-05-22T14:47:37Z</time>
      </trkpt>
      <trkpt lat="49.6117" lon="1.99234">
        <ele>181</ele>
        <time>2023-05-22T14:48:18Z</time>
      </trkpt>
      <trkpt lat="49.6107" lon="1.99327">
        <ele>182</ele>
        <time>2023-05-22T14:48:39Z</time>
      </trkpt>
      <trkpt lat="49.61033" lon="1.99368">
        <ele>183</ele>
        <time>2023-05-22T14:48:47Z</time>
      </trkpt>
      <trkpt lat="49.60996" lon="1.99417">
        <ele>185</ele>
        <time>2023-05-22T14:48:56Z</time>
      </trkpt>
      <trkpt lat="49.60986" lon="1.9943">
        <ele>185</ele>
        <time>2023-05-22T14:48:58Z</time>
      </trkpt>
      <trkpt lat="49.60868" lon="1.99556">
        <ele>187</ele>
        <time>2023-05-22T14:49:24Z</time>
      </trkpt>
      <trkpt lat="49.6084" lon="1.99583">
        <ele>187</ele>
        <time>2023-05-22T14:49:30Z</time>
      </trkpt>
      <trkpt lat="49.60865" lon="1.99585">
        <ele>187</ele>
        <time>2023-05-22T14:49:34Z</time>
      </trkpt>
      <trkpt lat="49.60877" lon="1.99591">
        <ele>187</ele>
        <time>2023-05-22T14:49:36Z</time>
      </trkpt>
      <trkpt lat="49.61044" lon="1.99688">
        <ele>187</ele>
        <time>2023-05-22T14:50:08Z</time>
      </trkpt>
      <trkpt lat="49.61127" lon="1.99728">
        <ele>187</ele>
        <time>2023-05-22T14:50:24Z</time>
      </trkpt>
      <trkpt lat="49.61361" lon="1.99859">
        <ele>189</ele>
        <time>2023-05-22T14:51:08Z</time>
      </trkpt>
      <trkpt lat="49.6143" lon="1.99892">
        <ele>189</ele>
        <time>2023-05-22T14:51:21Z</time>
      </trkpt>
      <trkpt lat="49.61537" lon="1.99919">
        <ele>192</ele>
        <time>2023-05-22T14:51:40Z</time>
      </trkpt>
      <trkpt lat="49.61571" lon="1.99934">
        <ele>194</ele>
        <time>2023-05-22T14:51:46Z</time>
      </trkpt>
      <trkpt lat="49.6163" lon="1.99995">
        <ele>196</ele>
        <time>2023-05-22T14:51:59Z</time>
      </trkpt>
      <trkpt lat="49.61747" lon="2.00132">
        <ele>198</ele>
        <time>2023-05-22T14:52:25Z</time>
      </trkpt>
      <trkpt lat="49.61798" lon="2.00175">
        <ele>196</ele>
        <time>2023-05-22T14:52:35Z</time>
      </trkpt>
      <trkpt lat="49.61857" lon="2.00211">
        <ele>194</ele>
        <time>2023-05-22T14:52:47Z</time>
      </trkpt>
      <trkpt lat="49.61903" lon="2.00245">
        <ele>189</ele>
        <time>2023-05-22T14:52:56Z</time>
      </trkpt>
      <trkpt lat="49.61987" lon="2.00343">
        <ele>184</ele>
        <time>2023-05-22T14:53:15Z</time>
      </trkpt>
      <trkpt lat="49.62034" lon="2.00408">
        <ele>182</ele>
        <time>2023-05-22T14:53:26Z</time>
      </trkpt>
      <trkpt lat="49.62085" lon="2.00492">
        <ele>181</ele>
        <time>2023-05-22T14:53:39Z</time>
      </trkpt>
      <trkpt lat="49.62135" lon="2.00557">
        <ele>181</ele>
        <time>2023-05-22T14:53:51Z</time>
      </trkpt>
      <trkpt lat="49.623" lon="2.0078">
        <ele>180</ele>
        <time>2023-05-22T14:54:30Z</time>
      </trkpt>
      <trkpt lat="49.62385" lon="2.00886">
        <ele>181</ele>
        <time>2023-05-22T14:54:49Z</time>
      </trkpt>
      <trkpt lat="49.62453" lon="2.00964">
        <ele>180</ele>
        <time>2023-05-22T14:55:04Z</time>
      </trkpt>
      <trkpt lat="49.62497" lon="2.01026">
        <ele>180</ele>
        <time>2023-05-22T14:55:15Z</time>
      </trkpt>
      <trkpt lat="49.62509" lon="2.0109">
        <ele>179</ele>
        <time>2023-05-22T14:55:23Z</time>
      </trkpt>
      <trkpt lat="49.6252" lon="2.01129">
        <ele>178</ele>
        <time>2023-05-22T14:55:27Z</time>
      </trkpt>
      <trkpt lat="49.62566" lon="2.01222">
        <ele>177</ele>
        <time>2023-05-22T14:55:41Z</time>
      </trkpt>
      <trkpt lat="49.62611" lon="2.0134">
        <ele>176</ele>
        <time>2023-05-22T14:55:57Z</time>
      </trkpt>
      <trkpt lat="49.62633" lon="2.0146">
        <ele>176</ele>
        <time>2023-05-22T14:56:11Z</time>
      </trkpt>
      <trkpt lat="49.62642" lon="2.02172">
        <ele>174</ele>
        <time>2023-05-22T14:57:33Z</time>
      </trkpt>
      <trkpt lat="49.62655" lon="2.02695">
        <ele>178</ele>
        <time>2023-05-22T14:58:33Z</time>
      </trkpt>
      <trkpt lat="49.62657" lon="2.02817">
        <ele>179</ele>
        <time>2023-05-22T14:58:48Z</time>
      </trkpt>
      <trkpt lat="49.62661" lon="2.02833">
        <ele>179</ele>
        <time>2023-05-22T14:58:50Z</time>
      </trkpt>
      <trkpt lat="49.62712" lon="2.02947">
        <ele>181</ele>
        <time>2023-05-22T14:59:05Z</time>
      </trkpt>
      <trkpt lat="49.62727" lon="2.03006">
        <ele>182</ele>
        <time>2023-05-22T14:59:13Z</time>
      </trkpt>
      <trkpt lat="49.62745" lon="2.03101">
        <ele>182</ele>
        <time>2023-05-22T14:59:24Z</time>
      </trkpt>
      <trkpt lat="49.62765" lon="2.03235">
        <ele>180</ele>
        <time>2023-05-22T14:59:40Z</time>
      </trkpt>
      <trkpt lat="49.62758" lon="2.03248">
        <ele>180</ele>
        <time>2023-05-22T14:59:42Z</time>
      </trkpt>
      <trkpt lat="49.62743" lon="2.03292">
        <ele>180</ele>
        <time>2023-05-22T14:59:48Z</time>
      </trkpt>
      <trkpt lat="49.6273" lon="2.03306">
        <ele>180</ele>
        <time>2023-05-22T14:59:51Z</time>
      </trkpt>
      <trkpt lat="49.62707" lon="2.03323">
        <ele>180</ele>
        <time>2023-05-22T14:59:55Z</time>
      </trkpt>
      <trkpt lat="49.62668" lon="2.03334">
        <ele>180</ele>
        <time>2023-05-22T15:00:02Z</time>
      </trkpt>
      <trkpt lat="49.62653" lon="2.03324">
        <ele>180</ele>
        <time>2023-05-22T15:00:05Z</time>
      </trkpt>
      <trkpt lat="49.62598" lon="2.03267">
        <ele>178</ele>
        <time>2023-05-22T15:00:17Z</time>
      </trkpt>
      <trkpt lat="49.62546" lon="2.03256">
        <ele>177</ele>
        <time>2023-05-22T15:00:26Z</time>
      </trkpt>
      <trkpt lat="49.62501" lon="2.03253">
        <ele>176</ele>
        <time>2023-05-22T15:00:34Z</time>
      </trkpt>
      <trkpt lat="49.62464" lon="2.03247">
        <ele>175</ele>
        <time>2023-05-22T15:00:41Z</time>
      </trkpt>
      <trkpt lat="49.62439" lon="2.03247">
        <ele>175</ele>
        <time>2023-05-22T15:00:45Z</time>
      </trkpt>
      <trkpt lat="49.62421" lon="2.03249">
        <ele>174</ele>
        <time>2023-05-22T15:00:48Z</time>
      </trkpt>
      <trkpt lat="49.62409" lon="2.0326">
        <ele>174</ele>
        <time>2023-05-22T15:00:51Z</time>
      </trkpt>
      <trkpt lat="49.62397" lon="2.03276">
        <ele>174</ele>
        <time>2023-05-22T15:00:54Z</time>
      </trkpt>
      <trkpt lat="49.62374" lon="2.03317">
        <ele>173</ele>
        <time>2023-05-22T15:01:00Z</time>
      </trkpt>
      <trkpt lat="49.6233" lon="2.03411">
        <ele>172</ele>
        <time>2023-05-22T15:01:13Z</time>
      </trkpt>
      <trkpt lat="49.62318" lon="2.03432">
        <ele>172</ele>
        <time>2023-05-22T15:01:17Z</time>
      </trkpt>
      <trkpt lat="49.62295" lon="2.03457">
        <ele>171</ele>
        <time>2023-05-22T15:01:22Z</time>
      </trkpt>
      <trkpt lat="49.62254" lon="2.03484">
        <ele>169</ele>
        <time>2023-05-22T15:01:30Z</time>
      </trkpt>
      <trkpt lat="49.62098" lon="2.03566">
        <ele>171</ele>
        <time>2023-05-22T15:01:59Z</time>
      </trkpt>
      <trkpt lat="49.62042" lon="2.0359">
        <ele>173</ele>
        <time>2023-05-22T15:02:09Z</time>
      </trkpt>
      <trkpt lat="49.61986" lon="2.0362">
        <ele>177</ele>
        <time>2023-05-22T15:02:20Z</time>
      </trkpt>
      <trkpt lat="49.61943" lon="2.03651">
        <ele>183</ele>
        <time>2023-05-22T15:02:28Z</time>
      </trkpt>
      <trkpt lat="49.61909" lon="2.03685">
        <ele>186</ele>
        <time>2023-05-22T15:02:35Z</time>
      </trkpt>
      <trkpt lat="49.61889" lon="2.03713">
        <ele>188</ele>
        <time>2023-05-22T15:02:40Z</time>
      </trkpt>
      <trkpt lat="49.61842" lon="2.03791">
        <ele>192</ele>
        <time>2023-05-22T15:02:53Z</time>
      </trkpt>
      <trkpt lat="49.61602" lon="2.04249">
        <ele>175</ele>
        <time>2023-05-22T15:04:00Z</time>
      </trkpt>
      <trkpt lat="49.61547" lon="2.04366">
        <ele>169</ele>
        <time>2023-05-22T15:04:17Z</time>
      </trkpt>
      <trkpt lat="49.61517" lon="2.04441">
        <ele>166</ele>
        <time>2023-05-22T15:04:27Z</time>
      </trkpt>
      <trkpt lat="49.61473" lon="2.04562">
        <ele>165</ele>
        <time>2023-05-22T15:04:43Z</time>
      </trkpt>
      <trkpt lat="49.61442" lon="2.04673">
        <ele>167</ele>
        <time>2023-05-22T15:04:57Z</time>
      </trkpt>
      <trkpt lat="49.61385" lon="2.04925">
        <ele>169</ele>
        <time>2023-05-22T15:05:28Z</time>
      </trkpt>
      <trkpt lat="49.6136" lon="2.05069">
        <ele>170</ele>
        <time>2023-05-22T15:05:45Z</time>
      </trkpt>
      <trkpt lat="49.61308" lon="2.0543">
        <ele>170</ele>
        <time>2023-05-22T15:06:28Z</time>
      </trkpt>
      <trkpt lat="49.61283" lon="2.0558">
        <ele>172</ele>
        <time>2023-05-22T15:06:46Z</time>
      </trkpt>
      <trkpt lat="49.61248" lon="2.05713">
        <ele>172</ele>
        <time>2023-05-22T15:07:02Z</time>
      </trkpt>
      <trkpt lat="49.61206" lon="2.05855">
        <ele>170</ele>
        <time>2023-05-22T15:07:20Z</time>
      </trkpt>
      <trkpt lat="49.61166" lon="2.05973">
        <ele>168</ele>
        <time>2023-05-22T15:07:36Z</time>
      </trkpt>
      <trkpt lat="49.61126" lon="2.06059">
        <ele>165</ele>
        <time>2023-05-22T15:07:48Z</time>
      </trkpt>
      <trkpt lat="49.61064" lon="2.06174">
        <ele>165</ele>
        <time>2023-05-22T15:08:05Z</time>
      </trkpt>
      <trkpt lat="49.6103" lon="2.06259">
        <ele>167</ele>
        <time>2023-05-22T15:08:16Z</time>
      </trkpt>
      <trkpt lat="49.6102" lon="2.0629">
        <ele>168</ele>
        <time>2023-05-22T15:08:20Z</time>
      </trkpt>
      <trkpt lat="49.61015" lon="2.06315">
        <ele>168</ele>
        <time>2023-05-22T15:08:23Z</time>
      </trkpt>
      <trkpt lat="49.60991" lon="2.06493">
        <ele>170</ele>
        <time>2023-05-22T15:08:44Z</time>
      </trkpt>
      <trkpt lat="49.60971" lon="2.06581">
        <ele>170</ele>
        <time>2023-05-22T15:08:55Z</time>
      </trkpt>
      <trkpt lat="49.60964" lon="2.06593">
        <ele>170</ele>
        <time>2023-05-22T15:08:57Z</time>
      </trkpt>
      <trkpt lat="49.6096" lon="2.06596">
        <ele>170</ele>
        <time>2023-05-22T15:08:58Z</time>
      </trkpt>
      <trkpt lat="49.60956" lon="2.06605">
        <ele>170</ele>
        <time>2023-05-22T15:08:59Z</time>
      </trkpt>
      <trkpt lat="49.60956" lon="2.06616">
        <ele>170</ele>
        <time>2023-05-22T15:09:00Z</time>
      </trkpt>
      <trkpt lat="49.6096" lon="2.06626">
        <ele>170</ele>
        <time>2023-05-22T15:09:02Z</time>
      </trkpt>
      <trkpt lat="49.6096" lon="2.06647">
        <ele>170</ele>
        <time>2023-05-22T15:09:04Z</time>
      </trkpt>
      <trkpt lat="49.60952" lon="2.06704">
        <ele>170</ele>
        <time>2023-05-22T15:09:11Z</time>
      </trkpt>
      <trkpt lat="49.60896" lon="2.06941">
        <ele>169</ele>
        <time>2023-05-22T15:09:40Z</time>
      </trkpt>
      <trkpt lat="49.60891" lon="2.06971">
        <ele>169</ele>
        <time>2023-05-22T15:09:44Z</time>
      </trkpt>
      <trkpt lat="49.6089" lon="2.06995">
        <ele>168</ele>
        <time>2023-05-22T15:09:46Z</time>
      </trkpt>
      <trkpt lat="49.60892" lon="2.07025">
        <ele>169</ele>
        <time>2023-05-22T15:09:50Z</time>
      </trkpt>
      <trkpt lat="49.60902" lon="2.0716">
        <ele>171</ele>
        <time>2023-05-22T15:10:05Z</time>
      </trkpt>
      <trkpt lat="49.60904" lon="2.07209">
        <ele>172</ele>
        <time>2023-05-22T15:10:11Z</time>
      </trkpt>
      <trkpt lat="49.60894" lon="2.07375">
        <ele>173</ele>
        <time>2023-05-22T15:10:30Z</time>
      </trkpt>
      <trkpt lat="49.60885" lon="2.07468">
        <ele>174</ele>
        <time>2023-05-22T15:10:41Z</time>
      </trkpt>
      <trkpt lat="49.6086" lon="2.0746">
        <ele>175</ele>
        <time>2023-05-22T15:10:46Z</time>
      </trkpt>
      <trkpt lat="49.60841" lon="2.07543">
        <ele>176</ele>
        <time>2023-05-22T15:10:56Z</time>
      </trkpt>
      <trkpt lat="49.60818" lon="2.07631">
        <ele>177</ele>
        <time>2023-05-22T15:11:07Z</time>
      </trkpt>
      <trkpt lat="49.60836" lon="2.07646">
        <ele>177</ele>
        <time>2023-05-22T15:11:10Z</time>
      </trkpt>
      <trkpt lat="49.60845" lon="2.07662">
        <ele>177</ele>
        <time>2023-05-22T15:11:13Z</time>
      </trkpt>
      <trkpt lat="49.60866" lon="2.07782">
        <ele>177</ele>
        <time>2023-05-22T15:11:27Z</time>
      </trkpt>
      <trkpt lat="49.6089" lon="2.07775">
        <ele>176</ele>
        <time>2023-05-22T15:11:32Z</time>
      </trkpt>
      <trkpt lat="49.60934" lon="2.07764">
        <ele>176</ele>
        <time>2023-05-22T15:11:40Z</time>
      </trkpt>
      <trkpt lat="49.61008" lon="2.07738">
        <ele>175</ele>
        <time>2023-05-22T15:11:53Z</time>
      </trkpt>
      <trkpt lat="49.61017" lon="2.0774">
        <ele>175</ele>
        <time>2023-05-22T15:11:55Z</time>
      </trkpt>
      <trkpt lat="49.61088" lon="2.07794">
        <ele>173</ele>
        <time>2023-05-22T15:12:09Z</time>
      </trkpt>
      <trkpt lat="49.61147" lon="2.07806">
        <ele>172</ele>
        <time>2023-05-22T15:12:19Z</time>
      </trkpt>
      <trkpt lat="49.61174" lon="2.07814">
        <ele>172</ele>
        <time>2023-05-22T15:12:24Z</time>
      </trkpt>
      <trkpt lat="49.61367" lon="2.0795">
        <ele>169</ele>
        <time>2023-05-22T15:13:02Z</time>
      </trkpt>
      <trkpt lat="49.61424" lon="2.07997">
        <ele>168</ele>
        <time>2023-05-22T15:13:13Z</time>
      </trkpt>
      <trkpt lat="49.61472" lon="2.0804">
        <ele>167</ele>
        <time>2023-05-22T15:13:23Z</time>
      </trkpt>
      <trkpt lat="49.61712" lon="2.08288">
        <ele>162</ele>
        <time>2023-05-22T15:14:15Z</time>
      </trkpt>
      <trkpt lat="49.61739" lon="2.08323">
        <ele>161</ele>
        <time>2023-05-22T15:14:21Z</time>
      </trkpt>
      <trkpt lat="49.61814" lon="2.08453">
        <ele>158</ele>
        <time>2023-05-22T15:14:41Z</time>
      </trkpt>
      <trkpt lat="49.61887" lon="2.0854">
        <ele>157</ele>
        <time>2023-05-22T15:14:57Z</time>
      </trkpt>
      <trkpt lat="49.61896" lon="2.08554">
        <ele>157</ele>
        <time>2023-05-22T15:15:00Z</time>
      </trkpt>
      <trkpt lat="49.61901" lon="2.0857">
        <ele>156</ele>
        <time>2023-05-22T15:15:02Z</time>
      </trkpt>
      <trkpt lat="49.61906" lon="2.08606">
        <ele>155</ele>
        <time>2023-05-22T15:15:06Z</time>
      </trkpt>
      <trkpt lat="49.61911" lon="2.08617">
        <ele>155</ele>
        <time>2023-05-22T15:15:08Z</time>
      </trkpt>
      <trkpt lat="49.6192" lon="2.08625">
        <ele>155</ele>
        <time>2023-05-22T15:15:09Z</time>
      </trkpt>
      <trkpt lat="49.61962" lon="2.08639">
        <ele>155</ele>
        <time>2023-05-22T15:15:17Z</time>
      </trkpt>
      <trkpt lat="49.61976" lon="2.08646">
        <ele>155</ele>
        <time>2023-05-22T15:15:20Z</time>
      </trkpt>
      <trkpt lat="49.6199" lon="2.08659">
        <ele>154</ele>
        <time>2023-05-22T15:15:23Z</time>
      </trkpt>
      <trkpt lat="49.62323" lon="2.09037">
        <ele>130</ele>
        <time>2023-05-22T15:16:36Z</time>
      </trkpt>
      <trkpt lat="49.62563" lon="2.09201">
        <ele>122</ele>
        <time>2023-05-22T15:17:23Z</time>
      </trkpt>
      <trkpt lat="49.62556" lon="2.09245">
        <ele>120</ele>
        <time>2023-05-22T15:17:28Z</time>
      </trkpt>
      <trkpt lat="49.62554" lon="2.09255">
        <ele>120</ele>
        <time>2023-05-22T15:17:29Z</time>
      </trkpt>
      <trkpt lat="49.62543" lon="2.09272">
        <ele>121</ele>
        <time>2023-05-22T15:17:32Z</time>
      </trkpt>
      <trkpt lat="49.62526" lon="2.09285">
        <ele>121</ele>
        <time>2023-05-22T15:17:35Z</time>
      </trkpt>
      <trkpt lat="49.62437" lon="2.09352">
        <ele>124</ele>
        <time>2023-05-22T15:17:53Z</time>
      </trkpt>
      <trkpt lat="49.62414" lon="2.09366">
        <ele>125</ele>
        <time>2023-05-22T15:17:57Z</time>
      </trkpt>
      <trkpt lat="49.62391" lon="2.09375">
        <ele>125</ele>
        <time>2023-05-22T15:18:02Z</time>
      </trkpt>
      <trkpt lat="49.62329" lon="2.09388">
        <ele>124</ele>
        <time>2023-05-22T15:18:13Z</time>
      </trkpt>
      <trkpt lat="49.6235" lon="2.0942">
        <ele>125</ele>
        <time>2023-05-22T15:18:18Z</time>
      </trkpt>
      <trkpt lat="49.62399" lon="2.09512">
        <ele>133</ele>
        <time>2023-05-22T15:18:32Z</time>
      </trkpt>
      <trkpt lat="49.6241" lon="2.09575">
        <ele>136</ele>
        <time>2023-05-22T15:18:39Z</time>
      </trkpt>
      <trkpt lat="49.62496" lon="2.09689">
        <ele>155</ele>
        <time>2023-05-22T15:18:59Z</time>
      </trkpt>
      <trkpt lat="49.62529" lon="2.09727">
        <ele>162</ele>
        <time>2023-05-22T15:19:07Z</time>
      </trkpt>
      <trkpt lat="49.62542" lon="2.09736">
        <ele>164</ele>
        <time>2023-05-22T15:19:09Z</time>
      </trkpt>
      <trkpt lat="49.62592" lon="2.09758">
        <ele>171</ele>
        <time>2023-05-22T15:19:19Z</time>
      </trkpt>
      <trkpt lat="49.62607" lon="2.09775">
        <ele>173</ele>
        <time>2023-05-22T15:19:22Z</time>
      </trkpt>
      <trkpt lat="49.62618" lon="2.09801">
        <ele>174</ele>
        <time>2023-05-22T15:19:25Z</time>
      </trkpt>
      <trkpt lat="49.62657" lon="2.0992">
        <ele>179</ele>
        <time>2023-05-22T15:19:41Z</time>
      </trkpt>
      <trkpt lat="49.62666" lon="2.09971">
        <ele>182</ele>
        <time>2023-05-22T15:19:47Z</time>
      </trkpt>
      <trkpt lat="49.6266" lon="2.09992">
        <ele>182</ele>
        <time>2023-05-22T15:19:50Z</time>
      </trkpt>
      <trkpt lat="49.62629" lon="2.10038">
        <ele>181</ele>
        <time>2023-05-22T15:19:57Z</time>
      </trkpt>
      <trkpt lat="49.62625" lon="2.10049">
        <ele>181</ele>
        <time>2023-05-22T15:19:59Z</time>
      </trkpt>
      <trkpt lat="49.62626" lon="2.10073">
        <ele>181</ele>
        <time>2023-05-22T15:20:01Z</time>
      </trkpt>
      <trkpt lat="49.62649" lon="2.10258">
        <ele>178</ele>
        <time>2023-05-22T15:20:23Z</time>
      </trkpt>
      <trkpt lat="49.62654" lon="2.10282">
        <ele>178</ele>
        <time>2023-05-22T15:20:26Z</time>
      </trkpt>
      <trkpt lat="49.62671" lon="2.10339">
        <ele>179</ele>
        <time>2023-05-22T15:20:33Z</time>
      </trkpt>
      <trkpt lat="49.62675" lon="2.10364">
        <ele>179</ele>
        <time>2023-05-22T15:20:36Z</time>
      </trkpt>
      <trkpt lat="49.62684" lon="2.10445">
        <ele>178</ele>
        <time>2023-05-22T15:20:46Z</time>
      </trkpt>
      <trkpt lat="49.62684" lon="2.10535">
        <ele>179</ele>
        <time>2023-05-22T15:20:56Z</time>
      </trkpt>
      <trkpt lat="49.62682" lon="2.1056">
        <ele>179</ele>
        <time>2023-05-22T15:20:59Z</time>
      </trkpt>
      <trkpt lat="49.62677" lon="2.10649">
        <ele>179</ele>
        <time>2023-05-22T15:21:09Z</time>
      </trkpt>
      <trkpt lat="49.62718" lon="2.10654">
        <ele>177</ele>
        <time>2023-05-22T15:21:17Z</time>
      </trkpt>
      <trkpt lat="49.62734" lon="2.1066">
        <ele>177</ele>
        <time>2023-05-22T15:21:20Z</time>
      </trkpt>
      <trkpt lat="49.62743" lon="2.10667">
        <ele>176</ele>
        <time>2023-05-22T15:21:21Z</time>
      </trkpt>
      <trkpt lat="49.62766" lon="2.10693">
        <ele>175</ele>
        <time>2023-05-22T15:21:26Z</time>
      </trkpt>
      <trkpt lat="49.62789" lon="2.10707">
        <ele>174</ele>
        <time>2023-05-22T15:21:31Z</time>
      </trkpt>
      <trkpt lat="49.62799" lon="2.1071">
        <ele>173</ele>
        <time>2023-05-22T15:21:33Z</time>
      </trkpt>
      <trkpt lat="49.6281" lon="2.10709">
        <ele>172</ele>
        <time>2023-05-22T15:21:35Z</time>
      </trkpt>
      <trkpt lat="49.6283" lon="2.10711">
        <ele>170</ele>
        <time>2023-05-22T15:21:38Z</time>
      </trkpt>
      <trkpt lat="49.62843" lon="2.10708">
        <ele>169</ele>
        <time>2023-05-22T15:21:40Z</time>
      </trkpt>
      <trkpt lat="49.62847" lon="2.10712">
        <ele>168</ele>
        <time>2023-05-22T15:21:41Z</time>
      </trkpt>
      <trkpt lat="49.62849" lon="2.1072">
        <ele>168</ele>
        <time>2023-05-22T15:21:42Z</time>
      </trkpt>
      <trkpt lat="49.62852" lon="2.10746">
        <ele>168</ele>
        <time>2023-05-22T15:21:45Z</time>
      </trkpt>
      <trkpt lat="49.62857" lon="2.10761">
        <ele>167</ele>
        <time>2023-05-22T15:21:47Z</time>
      </trkpt>
      <trkpt lat="49.62861" lon="2.10768">
        <ele>167</ele>
        <time>2023-05-22T15:21:48Z</time>
      </trkpt>
      <trkpt lat="49.62892" lon="2.10789">
        <ele>163</ele>
        <time>2023-05-22T15:21:54Z</time>
      </trkpt>
      <trkpt lat="49.62991" lon="2.1087">
        <ele>153</ele>
        <time>2023-05-22T15:22:14Z</time>
      </trkpt>
      <trkpt lat="49.62998" lon="2.10875">
        <ele>153</ele>
        <time>2023-05-22T15:22:16Z</time>
      </trkpt>
      <trkpt lat="49.63005" lon="2.10875">
        <ele>152</ele>
        <time>2023-05-22T15:22:17Z</time>
      </trkpt>
      <trkpt lat="49.63011" lon="2.1087">
        <ele>151</ele>
        <time>2023-05-22T15:22:18Z</time>
      </trkpt>
      <trkpt lat="49.63037" lon="2.10822">
        <ele>147</ele>
        <time>2023-05-22T15:22:25Z</time>
      </trkpt>
      <trkpt lat="49.63068" lon="2.1078">
        <ele>142</ele>
        <time>2023-05-22T15:22:33Z</time>
      </trkpt>
      <trkpt lat="49.63119" lon="2.10676">
        <ele>134</ele>
        <time>2023-05-22T15:22:48Z</time>
      </trkpt>
      <trkpt lat="49.63188" lon="2.10572">
        <ele>122</ele>
        <time>2023-05-22T15:23:05Z</time>
      </trkpt>
      <trkpt lat="49.63231" lon="2.1053">
        <ele>117</ele>
        <time>2023-05-22T15:23:14Z</time>
      </trkpt>
      <trkpt lat="49.63265" lon="2.10491">
        <ele>113</ele>
        <time>2023-05-22T15:23:22Z</time>
      </trkpt>
      <trkpt lat="49.63305" lon="2.10425">
        <ele>111</ele>
        <time>2023-05-22T15:23:32Z</time>
      </trkpt>
      <trkpt lat="49.63319" lon="2.10391">
        <ele>111</ele>
        <time>2023-05-22T15:23:37Z</time>
      </trkpt>
      <trkpt lat="49.6333" lon="2.10354">
        <ele>112</ele>
        <time>2023-05-22T15:23:41Z</time>
      </trkpt>
      <trkpt lat="49.63337" lon="2.1034">
        <ele>113</ele>
        <time>2023-05-22T15:23:43Z</time>
      </trkpt>
      <trkpt lat="49.63403" lon="2.10409">
        <ele>112</ele>
        <time>2023-05-22T15:23:57Z</time>
      </trkpt>
      <trkpt lat="49.63442" lon="2.10437">
        <ele>113</ele>
        <time>2023-05-22T15:24:05Z</time>
      </trkpt>
      <trkpt lat="49.63489" lon="2.10464">
        <ele>113</ele>
        <time>2023-05-22T15:24:14Z</time>
      </trkpt>
      <trkpt lat="49.63562" lon="2.10529">
        <ele>114</ele>
        <time>2023-05-22T15:24:29Z</time>
      </trkpt>
      <trkpt lat="49.63583" lon="2.10554">
        <ele>113</ele>
        <time>2023-05-22T15:24:34Z</time>
      </trkpt>
      <trkpt lat="49.63627" lon="2.10612">
        <ele>113</ele>
        <time>2023-05-22T15:24:44Z</time>
      </trkpt>
      <trkpt lat="49.63661" lon="2.10652">
        <ele>113</ele>
        <time>2023-05-22T15:24:52Z</time>
      </trkpt>
      <trkpt lat="49.63873" lon="2.10802">
        <ele>110</ele>
        <time>2023-05-22T15:25:33Z</time>
      </trkpt>
      <trkpt lat="49.63893" lon="2.10824">
        <ele>110</ele>
        <time>2023-05-22T15:25:38Z</time>
      </trkpt>
      <trkpt lat="49.63907" lon="2.10846">
        <ele>109</ele>
        <time>2023-05-22T15:25:41Z</time>
      </trkpt>
      <trkpt lat="49.63923" lon="2.10884">
        <ele>109</ele>
        <time>2023-05-22T15:25:46Z</time>
      </trkpt>
      <trkpt lat="49.63992" lon="2.11173">
        <ele>105</ele>
        <time>2023-05-22T15:26:22Z</time>
      </trkpt>
      <trkpt lat="49.64006" lon="2.11222">
        <ele>104</ele>
        <time>2023-05-22T15:26:28Z</time>
      </trkpt>
      <trkpt lat="49.64017" lon="2.11249">
        <ele>103</ele>
        <time>2023-05-22T15:26:32Z</time>
      </trkpt>
      <trkpt lat="49.64031" lon="2.11273">
        <ele>104</ele>
        <time>2023-05-22T15:26:35Z</time>
      </trkpt>
      <trkpt lat="49.64173" lon="2.11433">
        <ele>106</ele>
        <time>2023-05-22T15:27:07Z</time>
      </trkpt>
      <trkpt lat="49.64189" lon="2.11441">
        <ele>106</ele>
        <time>2023-05-22T15:27:10Z</time>
      </trkpt>
      <trkpt lat="49.64213" lon="2.11441">
        <ele>104</ele>
        <time>2023-05-22T15:27:14Z</time>
      </trkpt>
      <trkpt lat="49.6422" lon="2.11443">
        <ele>104</ele>
        <time>2023-05-22T15:27:15Z</time>
      </trkpt>
      <trkpt lat="49.64228" lon="2.1145">
        <ele>104</ele>
        <time>2023-05-22T15:27:17Z</time>
      </trkpt>
      <trkpt lat="49.64249" lon="2.11495">
        <ele>103</ele>
        <time>2023-05-22T15:27:23Z</time>
      </trkpt>
      <trkpt lat="49.64261" lon="2.1151">
        <ele>103</ele>
        <time>2023-05-22T15:27:26Z</time>
      </trkpt>
      <trkpt lat="49.64356" lon="2.11596">
        <ele>101</ele>
        <time>2023-05-22T15:27:46Z</time>
      </trkpt>
      <trkpt lat="49.64505" lon="2.11738">
        <ele>102</ele>
        <time>2023-05-22T15:28:17Z</time>
      </trkpt>
      <trkpt lat="49.64539" lon="2.11762">
        <ele>102</ele>
        <time>2023-05-22T15:28:23Z</time>
      </trkpt>
      <trkpt lat="49.64582" lon="2.11785">
        <ele>102</ele>
        <time>2023-05-22T15:28:31Z</time>
      </trkpt>
      <trkpt lat="49.64741" lon="2.11832">
        <ele>99</ele>
        <time>2023-05-22T15:29:00Z</time>
      </trkpt>
      <trkpt lat="49.64826" lon="2.11845">
        <ele>98</ele>
        <time>2023-05-22T15:29:15Z</time>
      </trkpt>
      <trkpt lat="49.64854" lon="2.11851">
        <ele>98</ele>
        <time>2023-05-22T15:29:20Z</time>
      </trkpt>
      <trkpt lat="49.649" lon="2.11869">
        <ele>99</ele>
        <time>2023-05-22T15:29:29Z</time>
      </trkpt>
      <trkpt lat="49.64951" lon="2.11892">
        <ele>101</ele>
        <time>2023-05-22T15:29:38Z</time>
      </trkpt>
      <trkpt lat="49.64985" lon="2.11911">
        <ele>101</ele>
        <time>2023-05-22T15:29:45Z</time>
      </trkpt>
      <trkpt lat="49.64997" lon="2.11921">
        <ele>101</ele>
        <time>2023-05-22T15:29:47Z</time>
      </trkpt>
      <trkpt lat="49.65091" lon="2.12022">
        <ele>102</ele>
        <time>2023-05-22T15:30:08Z</time>
      </trkpt>
      <trkpt lat="49.65118" lon="2.12041">
        <ele>103</ele>
        <time>2023-05-22T15:30:13Z</time>
      </trkpt>
      <trkpt lat="49.65148" lon="2.12056">
        <ele>104</ele>
        <time>2023-05-22T15:30:18Z</time>
      </trkpt>
      <trkpt lat="49.65176" lon="2.12059">
        <ele>104</ele>
        <time>2023-05-22T15:30:23Z</time>
      </trkpt>
      <trkpt lat="49.65195" lon="2.12064">
        <ele>103</ele>
        <time>2023-05-22T15:30:27Z</time>
      </trkpt>
      <trkpt lat="49.65209" lon="2.12071">
        <ele>102</ele>
        <time>2023-05-22T15:30:30Z</time>
      </trkpt>
      <trkpt lat="49.65249" lon="2.12102">
        <ele>101</ele>
        <time>2023-05-22T15:30:38Z</time>
      </trkpt>
      <trkpt lat="49.65252" lon="2.12105">
        <ele>100</ele>
        <time>2023-05-22T15:30:38Z</time>
      </trkpt>
      <trkpt lat="49.65241" lon="2.12055">
        <ele>101</ele>
        <time>2023-05-22T15:30:44Z</time>
      </trkpt>
      <trkpt lat="49.65232" lon="2.12025">
        <ele>102</ele>
        <time>2023-05-22T15:30:48Z</time>
      </trkpt>
      <trkpt lat="49.65206" lon="2.1196">
        <ele>104</ele>
        <time>2023-05-22T15:30:57Z</time>
      </trkpt>
      <trkpt lat="49.65202" lon="2.11943">
        <ele>104</ele>
        <time>2023-05-22T15:30:59Z</time>
      </trkpt>
      <trkpt lat="49.65199" lon="2.11858">
        <ele>102</ele>
        <time>2023-05-22T15:31:09Z</time>
      </trkpt>
      <trkpt lat="49.65204" lon="2.11838">
        <ele>101</ele>
        <time>2023-05-22T15:31:11Z</time>
      </trkpt>
      <trkpt lat="49.65212" lon="2.11827">
        <ele>100</ele>
        <time>2023-05-22T15:31:13Z</time>
      </trkpt>
      <trkpt lat="49.65237" lon="2.11805">
        <ele>99</ele>
        <time>2023-05-22T15:31:18Z</time>
      </trkpt>
      <trkpt lat="49.65259" lon="2.11792">
        <ele>99</ele>
        <time>2023-05-22T15:31:22Z</time>
      </trkpt>
      <trkpt lat="49.65279" lon="2.11794">
        <ele>99</ele>
        <time>2023-05-22T15:31:26Z</time>
      </trkpt>
      <trkpt lat="49.65304" lon="2.11802">
        <ele>99</ele>
        <time>2023-05-22T15:31:31Z</time>
      </trkpt>
      <trkpt lat="49.65309" lon="2.11798">
        <ele>99</ele>
        <time>2023-05-22T15:31:32Z</time>
      </trkpt>
      <trkpt lat="49.65278" lon="2.116">
        <ele>108</ele>
        <time>2023-05-22T15:31:55Z</time>
      </trkpt>
      <trkpt lat="49.65261" lon="2.11276">
        <ele>110</ele>
        <time>2023-05-22T15:32:32Z</time>
      </trkpt>
      <trkpt lat="49.65266" lon="2.11078">
        <ele>109</ele>
        <time>2023-05-22T15:32:55Z</time>
      </trkpt>
      <trkpt lat="49.65253" lon="2.10963">
        <ele>108</ele>
        <time>2023-05-22T15:33:09Z</time>
      </trkpt>
      <trkpt lat="49.65242" lon="2.10905">
        <ele>107</ele>
        <time>2023-05-22T15:33:16Z</time>
      </trkpt>
      <trkpt lat="49.65196" lon="2.10707">
        <ele>106</ele>
        <time>2023-05-22T15:33:40Z</time>
      </trkpt>
      <trkpt lat="49.65179" lon="2.10564">
        <ele>110</ele>
        <time>2023-05-22T15:33:57Z</time>
      </trkpt>
      <trkpt lat="49.65172" lon="2.10426">
        <ele>112</ele>
        <time>2023-05-22T15:34:13Z</time>
      </trkpt>
      <trkpt lat="49.65198" lon="2.09796">
        <ele>135</ele>
        <time>2023-05-22T15:35:25Z</time>
      </trkpt>
      <trkpt lat="49.65247" lon="2.09576">
        <ele>141</ele>
        <time>2023-05-22T15:35:52Z</time>
      </trkpt>
      <trkpt lat="49.6526" lon="2.09322">
        <ele>151</ele>
        <time>2023-05-22T15:36:21Z</time>
      </trkpt>
      <trkpt lat="49.65271" lon="2.09214">
        <ele>156</ele>
        <time>2023-05-22T15:36:34Z</time>
      </trkpt>
      <trkpt lat="49.65257" lon="2.09104">
        <ele>159</ele>
        <time>2023-05-22T15:36:47Z</time>
      </trkpt>
      <trkpt lat="49.65198" lon="2.08888">
        <ele>162</ele>
        <time>2023-05-22T15:37:14Z</time>
      </trkpt>
      <trkpt lat="49.65161" lon="2.08804">
        <ele>162</ele>
        <time>2023-05-22T15:37:26Z</time>
      </trkpt>
      <trkpt lat="49.65144" lon="2.08726">
        <ele>161</ele>
        <time>2023-05-22T15:37:35Z</time>
      </trkpt>
      <trkpt lat="49.65149" lon="2.08635">
        <ele>163</ele>
        <time>2023-05-22T15:37:46Z</time>
      </trkpt>
      <trkpt lat="49.65169" lon="2.08499">
        <ele>165</ele>
        <time>2023-05-22T15:38:02Z</time>
      </trkpt>
      <trkpt lat="49.65187" lon="2.08409">
        <ele>166</ele>
        <time>2023-05-22T15:38:13Z</time>
      </trkpt>
      <trkpt lat="49.65196" lon="2.08334">
        <ele>166</ele>
        <time>2023-05-22T15:38:21Z</time>
      </trkpt>
      <trkpt lat="49.65212" lon="2.08283">
        <ele>166</ele>
        <time>2023-05-22T15:38:28Z</time>
      </trkpt>
      <trkpt lat="49.6522" lon="2.08238">
        <ele>166</ele>
        <time>2023-05-22T15:38:33Z</time>
      </trkpt>
      <trkpt lat="49.65227" lon="2.08181">
        <ele>166</ele>
        <time>2023-05-22T15:38:40Z</time>
      </trkpt>
      <trkpt lat="49.65223" lon="2.08082">
        <ele>168</ele>
        <time>2023-05-22T15:38:51Z</time>
      </trkpt>
      <trkpt lat="49.65219" lon="2.08062">
        <ele>168</ele>
        <time>2023-05-22T15:38:54Z</time>
      </trkpt>
      <trkpt lat="49.65222" lon="2.08033">
        <ele>168</ele>
        <time>2023-05-22T15:38:57Z</time>
      </trkpt>
      <trkpt lat="49.65238" lon="2.0799">
        <ele>168</ele>
        <time>2023-05-22T15:39:03Z</time>
      </trkpt>
      <trkpt lat="49.65243" lon="2.07937">
        <ele>168</ele>
        <time>2023-05-22T15:39:09Z</time>
      </trkpt>
      <trkpt lat="49.65224" lon="2.07714">
        <ele>167</ele>
        <time>2023-05-22T15:39:35Z</time>
      </trkpt>
      <trkpt lat="49.652" lon="2.07271">
        <ele>168</ele>
        <time>2023-05-22T15:40:26Z</time>
      </trkpt>
      <trkpt lat="49.65182" lon="2.06671">
        <ele>173</ele>
        <time>2023-05-22T15:41:35Z</time>
      </trkpt>
      <trkpt lat="49.65169" lon="2.05976">
        <ele>172</ele>
        <time>2023-05-22T15:42:55Z</time>
      </trkpt>
      <trkpt lat="49.65161" lon="2.0584">
        <ele>171</ele>
        <time>2023-05-22T15:43:11Z</time>
      </trkpt>
      <trkpt lat="49.65113" lon="2.05512">
        <ele>172</ele>
        <time>2023-05-22T15:43:50Z</time>
      </trkpt>
      <trkpt lat="49.65109" lon="2.05397">
        <ele>173</ele>
        <time>2023-05-22T15:44:03Z</time>
      </trkpt>
      <trkpt lat="49.65097" lon="2.05262">
        <ele>175</ele>
        <time>2023-05-22T15:44:19Z</time>
      </trkpt>
      <trkpt lat="49.65096" lon="2.05241">
        <ele>175</ele>
        <time>2023-05-22T15:44:21Z</time>
      </trkpt>
      <trkpt lat="49.65099" lon="2.05137">
        <ele>174</ele>
        <time>2023-05-22T15:44:33Z</time>
      </trkpt>
      <trkpt lat="49.65098" lon="2.051">
        <ele>173</ele>
        <time>2023-05-22T15:44:38Z</time>
      </trkpt>
      <trkpt lat="49.6515" lon="2.05102">
        <ele>172</ele>
        <time>2023-05-22T15:44:47Z</time>
      </trkpt>
      <trkpt lat="49.65181" lon="2.05105">
        <ele>172</ele>
        <time>2023-05-22T15:44:52Z</time>
      </trkpt>
      <trkpt lat="49.6522" lon="2.0512">
        <ele>172</ele>
        <time>2023-05-22T15:45:00Z</time>
      </trkpt>
      <trkpt lat="49.6525" lon="2.05142">
        <ele>171</ele>
        <time>2023-05-22T15:45:05Z</time>
      </trkpt>
      <trkpt lat="49.65269" lon="2.05175">
        <ele>171</ele>
        <time>2023-05-22T15:45:11Z</time>
      </trkpt>
      <trkpt lat="49.6529" lon="2.05205">
        <ele>171</ele>
        <time>2023-05-22T15:45:16Z</time>
      </trkpt>
      <trkpt lat="49.65303" lon="2.05232">
        <ele>171</ele>
        <time>2023-05-22T15:45:19Z</time>
      </trkpt>
      <trkpt lat="49.65321" lon="2.0533">
        <ele>170</ele>
        <time>2023-05-22T15:45:31Z</time>
      </trkpt>
      <trkpt lat="49.65334" lon="2.05373">
        <ele>170</ele>
        <time>2023-05-22T15:45:37Z</time>
      </trkpt>
      <trkpt lat="49.65358" lon="2.05412">
        <ele>169</ele>
        <time>2023-05-22T15:45:43Z</time>
      </trkpt>
      <trkpt lat="49.6559" lon="2.05757">
        <ele>170</ele>
        <time>2023-05-22T15:46:40Z</time>
      </trkpt>
      <trkpt lat="49.65687" lon="2.05843">
        <ele>171</ele>
        <time>2023-05-22T15:47:00Z</time>
      </trkpt>
      <trkpt lat="49.65849" lon="2.05981">
        <ele>171</ele>
        <time>2023-05-22T15:47:33Z</time>
      </trkpt>
      <trkpt lat="49.65996" lon="2.05991">
        <ele>172</ele>
        <time>2023-05-22T15:47:59Z</time>
      </trkpt>
      <trkpt lat="49.66167" lon="2.06103">
        <ele>167</ele>
        <time>2023-05-22T15:48:32Z</time>
      </trkpt>
      <trkpt lat="49.66229" lon="2.06118">
        <ele>162</ele>
        <time>2023-05-22T15:48:43Z</time>
      </trkpt>
      <trkpt lat="49.66271" lon="2.06152">
        <ele>157</ele>
        <time>2023-05-22T15:48:52Z</time>
      </trkpt>
      <trkpt lat="49.66253" lon="2.0634">
        <ele>150</ele>
        <time>2023-05-22T15:49:14Z</time>
      </trkpt>
      <trkpt lat="49.66321" lon="2.06528">
        <ele>139</ele>
        <time>2023-05-22T15:49:39Z</time>
      </trkpt>
      <trkpt lat="49.66324" lon="2.06552">
        <ele>137</ele>
        <time>2023-05-22T15:49:41Z</time>
      </trkpt>
      <trkpt lat="49.66327" lon="2.06618">
        <ele>131</ele>
        <time>2023-05-22T15:49:49Z</time>
      </trkpt>
      <trkpt lat="49.66342" lon="2.06705">
        <ele>124</ele>
        <time>2023-05-22T15:49:59Z</time>
      </trkpt>
      <trkpt lat="49.66343" lon="2.06734">
        <ele>124</ele>
        <time>2023-05-22T15:50:03Z</time>
      </trkpt>
      <trkpt lat="49.66337" lon="2.0689">
        <ele>122</ele>
        <time>2023-05-22T15:50:21Z</time>
      </trkpt>
      <trkpt lat="49.66343" lon="2.06978">
        <ele>124</ele>
        <time>2023-05-22T15:50:31Z</time>
      </trkpt>
      <trkpt lat="49.6634" lon="2.07008">
        <ele>125</ele>
        <time>2023-05-22T15:50:34Z</time>
      </trkpt>
      <trkpt lat="49.6633" lon="2.07054">
        <ele>125</ele>
        <time>2023-05-22T15:50:40Z</time>
      </trkpt>
      <trkpt lat="49.6633" lon="2.07065">
        <ele>125</ele>
        <time>2023-05-22T15:50:41Z</time>
      </trkpt>
      <trkpt lat="49.66334" lon="2.07071">
        <ele>125</ele>
        <time>2023-05-22T15:50:42Z</time>
      </trkpt>
      <trkpt lat="49.66338" lon="2.07071">
        <ele>126</ele>
        <time>2023-05-22T15:50:43Z</time>
      </trkpt>
      <trkpt lat="49.66382" lon="2.06982">
        <ele>129</ele>
        <time>2023-05-22T15:50:56Z</time>
      </trkpt>
      <trkpt lat="49.66418" lon="2.06925">
        <ele>128</ele>
        <time>2023-05-22T15:51:05Z</time>
      </trkpt>
      <trkpt lat="49.66513" lon="2.06798">
        <ele>138</ele>
        <time>2023-05-22T15:51:27Z</time>
      </trkpt>
      <trkpt lat="49.66588" lon="2.06687">
        <ele>148</ele>
        <time>2023-05-22T15:51:46Z</time>
      </trkpt>
      <trkpt lat="49.66656" lon="2.06541">
        <ele>153</ele>
        <time>2023-05-22T15:52:07Z</time>
      </trkpt>
      <trkpt lat="49.66669" lon="2.06524">
        <ele>155</ele>
        <time>2023-05-22T15:52:10Z</time>
      </trkpt>
      <trkpt lat="49.66683" lon="2.06517">
        <ele>156</ele>
        <time>2023-05-22T15:52:12Z</time>
      </trkpt>
      <trkpt lat="49.66802" lon="2.06521">
        <ele>165</ele>
        <time>2023-05-22T15:52:33Z</time>
      </trkpt>
      <trkpt lat="49.66818" lon="2.0652">
        <ele>165</ele>
        <time>2023-05-22T15:52:36Z</time>
      </trkpt>
      <trkpt lat="49.66866" lon="2.06504">
        <ele>167</ele>
        <time>2023-05-22T15:52:45Z</time>
      </trkpt>
      <trkpt lat="49.66886" lon="2.06505">
        <ele>167</ele>
        <time>2023-05-22T15:52:49Z</time>
      </trkpt>
      <trkpt lat="49.67064" lon="2.06555">
        <ele>165</ele>
        <time>2023-05-22T15:53:21Z</time>
      </trkpt>
      <trkpt lat="49.67356" lon="2.06651">
        <ele>169</ele>
        <time>2023-05-22T15:54:14Z</time>
      </trkpt>
      <trkpt lat="49.67683" lon="2.06751">
        <ele>175</ele>
        <time>2023-05-22T15:55:13Z</time>
      </trkpt>
      <trkpt lat="49.67769" lon="2.06774">
        <ele>176</ele>
        <time>2023-05-22T15:55:29Z</time>
      </trkpt>
      <trkpt lat="49.67833" lon="2.0673">
        <ele>176</ele>
        <time>2023-05-22T15:55:41Z</time>
      </trkpt>
      <trkpt lat="49.67936" lon="2.06666">
        <ele>176</ele>
        <time>2023-05-22T15:56:01Z</time>
      </trkpt>
      <trkpt lat="49.67976" lon="2.06765">
        <ele>176</ele>
        <time>2023-05-22T15:56:14Z</time>
      </trkpt>
      <trkpt lat="49.68003" lon="2.06836">
        <ele>176</ele>
        <time>2023-05-22T15:56:24Z</time>
      </trkpt>
      <trkpt lat="49.68201" lon="2.07367">
        <ele>177</ele>
        <time>2023-05-22T15:57:34Z</time>
      </trkpt>
      <trkpt lat="49.68296" lon="2.07627">
        <ele>177</ele>
        <time>2023-05-22T15:58:09Z</time>
      </trkpt>
      <trkpt lat="49.68327" lon="2.07696">
        <ele>177</ele>
        <time>2023-05-22T15:58:18Z</time>
      </trkpt>
      <trkpt lat="49.68471" lon="2.07878">
        <ele>179</ele>
        <time>2023-05-22T15:58:52Z</time>
      </trkpt>
      <trkpt lat="49.68741" lon="2.08251">
        <ele>183</ele>
        <time>2023-05-22T15:59:56Z</time>
      </trkpt>
      <trkpt lat="49.68893" lon="2.0857">
        <ele>184</ele>
        <time>2023-05-22T16:00:42Z</time>
      </trkpt>
      <trkpt lat="49.68966" lon="2.08715">
        <ele>185</ele>
        <time>2023-05-22T16:01:03Z</time>
      </trkpt>
      <trkpt lat="49.69042" lon="2.08809">
        <ele>186</ele>
        <time>2023-05-22T16:01:20Z</time>
      </trkpt>
      <trkpt lat="49.69148" lon="2.08925">
        <ele>186</ele>
        <time>2023-05-22T16:01:43Z</time>
      </trkpt>
      <trkpt lat="49.69222" lon="2.09046">
        <ele>186</ele>
        <time>2023-05-22T16:02:02Z</time>
      </trkpt>
      <trkpt lat="49.69253" lon="2.0912">
        <ele>187</ele>
        <time>2023-05-22T16:02:12Z</time>
      </trkpt>
      <trkpt lat="49.69302" lon="2.09282">
        <ele>187</ele>
        <time>2023-05-22T16:02:33Z</time>
      </trkpt>
      <trkpt lat="49.6931" lon="2.09337">
        <ele>187</ele>
        <time>2023-05-22T16:02:40Z</time>
      </trkpt>
      <trkpt lat="49.69332" lon="2.09406">
        <ele>186</ele>
        <time>2023-05-22T16:02:48Z</time>
      </trkpt>
      <trkpt lat="49.6935" lon="2.0945">
        <ele>186</ele>
        <time>2023-05-22T16:02:54Z</time>
      </trkpt>
      <trkpt lat="49.69371" lon="2.09507">
        <ele>186</ele>
        <time>2023-05-22T16:03:02Z</time>
      </trkpt>
      <trkpt lat="49.69389" lon="2.09541">
        <ele>186</ele>
        <time>2023-05-22T16:03:07Z</time>
      </trkpt>
      <trkpt lat="49.6941" lon="2.0957">
        <ele>186</ele>
        <time>2023-05-22T16:03:12Z</time>
      </trkpt>
      <trkpt lat="49.69434" lon="2.09594">
        <ele>186</ele>
        <time>2023-05-22T16:03:17Z</time>
      </trkpt>
      <trkpt lat="49.70014" lon="2.10127">
        <ele>188</ele>
        <time>2023-05-22T16:05:17Z</time>
      </trkpt>
      <trkpt lat="49.70083" lon="2.10205">
        <ele>188</ele>
        <time>2023-05-22T16:05:32Z</time>
      </trkpt>
      <trkpt lat="49.70159" lon="2.10296">
        <ele>190</ele>
        <time>2023-05-22T16:05:49Z</time>
      </trkpt>
      <trkpt lat="49.70261" lon="2.10423">
        <ele>190</ele>
        <time>2023-05-22T16:06:13Z</time>
      </trkpt>
      <trkpt lat="49.70361" lon="2.10537">
        <ele>190</ele>
        <time>2023-05-22T16:06:35Z</time>
      </trkpt>
      <trkpt lat="49.70388" lon="2.10561">
        <ele>190</ele>
        <time>2023-05-22T16:06:40Z</time>
      </trkpt>
      <trkpt lat="49.70438" lon="2.10598">
        <ele>190</ele>
        <time>2023-05-22T16:06:50Z</time>
      </trkpt>
      <trkpt lat="49.70563" lon="2.1071">
        <ele>189</ele>
        <time>2023-05-22T16:07:16Z</time>
      </trkpt>
      <trkpt lat="49.70579" lon="2.10728">
        <ele>189</ele>
        <time>2023-05-22T16:07:19Z</time>
      </trkpt>
      <trkpt lat="49.70593" lon="2.10744">
        <ele>189</ele>
        <time>2023-05-22T16:07:23Z</time>
      </trkpt>
      <trkpt lat="49.70656" lon="2.10836">
        <ele>189</ele>
        <time>2023-05-22T16:07:38Z</time>
      </trkpt>
      <trkpt lat="49.70667" lon="2.10857">
        <ele>190</ele>
        <time>2023-05-22T16:07:41Z</time>
      </trkpt>
      <trkpt lat="49.70695" lon="2.1092">
        <ele>190</ele>
        <time>2023-05-22T16:07:50Z</time>
      </trkpt>
      <trkpt lat="49.70731" lon="2.11014">
        <ele>190</ele>
        <time>2023-05-22T16:08:02Z</time>
      </trkpt>
      <trkpt lat="49.70795" lon="2.11193">
        <ele>188</ele>
        <time>2023-05-22T16:08:26Z</time>
      </trkpt>
      <trkpt lat="49.70851" lon="2.11311">
        <ele>187</ele>
        <time>2023-05-22T16:08:43Z</time>
      </trkpt>
      <trkpt lat="49.70903" lon="2.11258">
        <ele>189</ele>
        <time>2023-05-22T16:08:54Z</time>
      </trkpt>
      <trkpt lat="49.70942" lon="2.11232">
        <ele>189</ele>
        <time>2023-05-22T16:09:01Z</time>
      </trkpt>
      <trkpt lat="49.71005" lon="2.11194">
        <ele>189</ele>
        <time>2023-05-22T16:09:13Z</time>
      </trkpt>
      <trkpt lat="49.71061" lon="2.11165">
        <ele>189</ele>
        <time>2023-05-22T16:09:24Z</time>
      </trkpt>
      <trkpt lat="49.71068" lon="2.11118">
        <ele>190</ele>
        <time>2023-05-22T16:09:30Z</time>
      </trkpt>
      <trkpt lat="49.71081" lon="2.11077">
        <ele>191</ele>
        <time>2023-05-22T16:09:35Z</time>
      </trkpt>
      <trkpt lat="49.71095" lon="2.11048">
        <ele>191</ele>
        <time>2023-05-22T16:09:39Z</time>
      </trkpt>
      <trkpt lat="49.71178" lon="2.10941">
        <ele>192</ele>
        <time>2023-05-22T16:09:58Z</time>
      </trkpt>
      <trkpt lat="49.71204" lon="2.10899">
        <ele>192</ele>
        <time>2023-05-22T16:10:05Z</time>
      </trkpt>
      <trkpt lat="49.71231" lon="2.10853">
        <ele>191</ele>
        <time>2023-05-22T16:10:12Z</time>
      </trkpt>
      <trkpt lat="49.71269" lon="2.10779">
        <ele>192</ele>
        <time>2023-05-22T16:10:23Z</time>
      </trkpt>
      <trkpt lat="49.71291" lon="2.10728">
        <ele>192</ele>
        <time>2023-05-22T16:10:30Z</time>
      </trkpt>
      <trkpt lat="49.71325" lon="2.10666">
        <ele>192</ele>
        <time>2023-05-22T16:10:39Z</time>
      </trkpt>
      <trkpt lat="49.71349" lon="2.106">
        <ele>191</ele>
        <time>2023-05-22T16:10:48Z</time>
      </trkpt>
      <trkpt lat="49.71379" lon="2.10474">
        <ele>189</ele>
        <time>2023-05-22T16:11:03Z</time>
      </trkpt>
      <trkpt lat="49.71412" lon="2.10394">
        <ele>189</ele>
        <time>2023-05-22T16:11:14Z</time>
      </trkpt>
      <trkpt lat="49.71634" lon="2.09961">
        <ele>181</ele>
        <time>2023-05-22T16:12:18Z</time>
      </trkpt>
      <trkpt lat="49.71681" lon="2.09859">
        <ele>179</ele>
        <time>2023-05-22T16:12:32Z</time>
      </trkpt>
      <trkpt lat="49.71704" lon="2.09803">
        <ele>178</ele>
        <time>2023-05-22T16:12:40Z</time>
      </trkpt>
      <trkpt lat="49.71779" lon="2.09596">
        <ele>182</ele>
        <time>2023-05-22T16:13:07Z</time>
      </trkpt>
      <trkpt lat="49.71795" lon="2.09543">
        <ele>184</ele>
        <time>2023-05-22T16:13:14Z</time>
      </trkpt>
      <trkpt lat="49.71835" lon="2.09365">
        <ele>185</ele>
        <time>2023-05-22T16:13:36Z</time>
      </trkpt>
      <trkpt lat="49.71853" lon="2.09294">
        <ele>184</ele>
        <time>2023-05-22T16:13:44Z</time>
      </trkpt>
      <trkpt lat="49.71883" lon="2.0921">
        <ele>181</ele>
        <time>2023-05-22T16:13:56Z</time>
      </trkpt>
      <trkpt lat="49.71945" lon="2.0908">
        <ele>173</ele>
        <time>2023-05-22T16:14:14Z</time>
      </trkpt>
      <trkpt lat="49.71959" lon="2.09035">
        <ele>171</ele>
        <time>2023-05-22T16:14:20Z</time>
      </trkpt>
      <trkpt lat="49.72034" lon="2.08763">
        <ele>155</ele>
        <time>2023-05-22T16:14:54Z</time>
      </trkpt>
      <trkpt lat="49.72036" lon="2.08735">
        <ele>153</ele>
        <time>2023-05-22T16:14:57Z</time>
      </trkpt>
      <trkpt lat="49.72035" lon="2.0865">
        <ele>145</ele>
        <time>2023-05-22T16:15:07Z</time>
      </trkpt>
      <trkpt lat="49.72029" lon="2.08618">
        <ele>142</ele>
        <time>2023-05-22T16:15:11Z</time>
      </trkpt>
      <trkpt lat="49.72011" lon="2.08558">
        <ele>138</ele>
        <time>2023-05-22T16:15:18Z</time>
      </trkpt>
      <trkpt lat="49.72004" lon="2.08523">
        <ele>136</ele>
        <time>2023-05-22T16:15:23Z</time>
      </trkpt>
      <trkpt lat="49.72003" lon="2.08477">
        <ele>132</ele>
        <time>2023-05-22T16:15:28Z</time>
      </trkpt>
      <trkpt lat="49.72025" lon="2.08355">
        <ele>119</ele>
        <time>2023-05-22T16:15:42Z</time>
      </trkpt>
      <trkpt lat="49.72052" lon="2.08179">
        <ele>102</ele>
        <time>2023-05-22T16:16:03Z</time>
      </trkpt>
      <trkpt lat="49.72055" lon="2.0815">
        <ele>100</ele>
        <time>2023-05-22T16:16:07Z</time>
      </trkpt>
      <trkpt lat="49.72052" lon="2.08079">
        <ele>96</ele>
        <time>2023-05-22T16:16:15Z</time>
      </trkpt>
      <trkpt lat="49.72057" lon="2.08014">
        <ele>93</ele>
        <time>2023-05-22T16:16:22Z</time>
      </trkpt>
      <trkpt lat="49.72079" lon="2.07879">
        <ele>85</ele>
        <time>2023-05-22T16:16:38Z</time>
      </trkpt>
      <trkpt lat="49.72053" lon="2.07868">
        <ele>86</ele>
        <time>2023-05-22T16:16:43Z</time>
      </trkpt>
      <trkpt lat="49.72033" lon="2.07855">
        <ele>86</ele>
        <time>2023-05-22T16:16:47Z</time>
      </trkpt>
      <trkpt lat="49.7196" lon="2.0779">
        <ele>88</ele>
        <time>2023-05-22T16:17:02Z</time>
      </trkpt>
      <trkpt lat="49.71872" lon="2.07696">
        <ele>86</ele>
        <time>2023-05-22T16:17:21Z</time>
      </trkpt>
      <trkpt lat="49.71795" lon="2.07655">
        <ele>85</ele>
        <time>2023-05-22T16:17:35Z</time>
      </trkpt>
      <trkpt lat="49.71662" lon="2.07603">
        <ele>85</ele>
        <time>2023-05-22T16:18:00Z</time>
      </trkpt>
      <trkpt lat="49.71559" lon="2.07552">
        <ele>89</ele>
        <time>2023-05-22T16:18:19Z</time>
      </trkpt>
      <trkpt lat="49.71471" lon="2.07505">
        <ele>89</ele>
        <time>2023-05-22T16:18:36Z</time>
      </trkpt>
      <trkpt lat="49.71406" lon="2.07462">
        <ele>91</ele>
        <time>2023-05-22T16:18:48Z</time>
      </trkpt>
      <trkpt lat="49.71331" lon="2.07466">
        <ele>98</ele>
        <time>2023-05-22T16:19:02Z</time>
      </trkpt>
      <trkpt lat="49.71286" lon="2.07464">
        <ele>102</ele>
        <time>2023-05-22T16:19:10Z</time>
      </trkpt>
      <trkpt lat="49.71268" lon="2.0746">
        <ele>103</ele>
        <time>2023-05-22T16:19:13Z</time>
      </trkpt>
      <trkpt lat="49.71251" lon="2.0745">
        <ele>102</ele>
        <time>2023-05-22T16:19:16Z</time>
      </trkpt>
      <trkpt lat="49.7124" lon="2.07438">
        <ele>101</ele>
        <time>2023-05-22T16:19:19Z</time>
      </trkpt>
      <trkpt lat="49.71233" lon="2.07423">
        <ele>99</ele>
        <time>2023-05-22T16:19:21Z</time>
      </trkpt>
      <trkpt lat="49.71227" lon="2.07398">
        <ele>96</ele>
        <time>2023-05-22T16:19:24Z</time>
      </trkpt>
      <trkpt lat="49.71225" lon="2.07375">
        <ele>93</ele>
        <time>2023-05-22T16:19:26Z</time>
      </trkpt>
      <trkpt lat="49.71224" lon="2.07357">
        <ele>91</ele>
        <time>2023-05-22T16:19:28Z</time>
      </trkpt>
      <trkpt lat="49.71218" lon="2.07318">
        <ele>88</ele>
        <time>2023-05-22T16:19:33Z</time>
      </trkpt>
      <trkpt lat="49.71212" lon="2.07304">
        <ele>88</ele>
        <time>2023-05-22T16:19:35Z</time>
      </trkpt>
      <trkpt lat="49.71205" lon="2.07292">
        <ele>88</ele>
        <time>2023-05-22T16:19:37Z</time>
      </trkpt>
      <trkpt lat="49.71186" lon="2.07279">
        <ele>87</ele>
        <time>2023-05-22T16:19:41Z</time>
      </trkpt>
      <trkpt lat="49.7109" lon="2.07246">
        <ele>87</ele>
        <time>2023-05-22T16:19:58Z</time>
      </trkpt>
      <trkpt lat="49.7104" lon="2.07221">
        <ele>89</ele>
        <time>2023-05-22T16:20:07Z</time>
      </trkpt>
      <trkpt lat="49.70988" lon="2.07198">
        <ele>91</ele>
        <time>2023-05-22T16:20:17Z</time>
      </trkpt>
      <trkpt lat="49.70806" lon="2.07125">
        <ele>95</ele>
        <time>2023-05-22T16:20:50Z</time>
      </trkpt>
      <trkpt lat="49.70759" lon="2.07103">
        <ele>95</ele>
        <time>2023-05-22T16:20:59Z</time>
      </trkpt>
      <trkpt lat="49.70647" lon="2.07045">
        <ele>93</ele>
        <time>2023-05-22T16:21:20Z</time>
      </trkpt>
      <trkpt lat="49.70626" lon="2.07026">
        <ele>93</ele>
        <time>2023-05-22T16:21:25Z</time>
      </trkpt>
      <trkpt lat="49.70605" lon="2.06984">
        <ele>93</ele>
        <time>2023-05-22T16:21:31Z</time>
      </trkpt>
      <trkpt lat="49.70563" lon="2.06886">
        <ele>93</ele>
        <time>2023-05-22T16:21:44Z</time>
      </trkpt>
      <trkpt lat="49.70544" lon="2.06853">
        <ele>94</ele>
        <time>2023-05-22T16:21:49Z</time>
      </trkpt>
      <trkpt lat="49.70459" lon="2.06743">
        <ele>94</ele>
        <time>2023-05-22T16:22:09Z</time>
      </trkpt>
      <trkpt lat="49.70442" lon="2.06713">
        <ele>94</ele>
        <time>2023-05-22T16:22:14Z</time>
      </trkpt>
      <trkpt lat="49.70436" lon="2.06694">
        <ele>94</ele>
        <time>2023-05-22T16:22:16Z</time>
      </trkpt>
      <trkpt lat="49.70433" lon="2.06676">
        <ele>94</ele>
        <time>2023-05-22T16:22:18Z</time>
      </trkpt>
      <trkpt lat="49.70432" lon="2.06648">
        <ele>95</ele>
        <time>2023-05-22T16:22:21Z</time>
      </trkpt>
      <trkpt lat="49.70432" lon="2.06633">
        <ele>96</ele>
        <time>2023-05-22T16:22:23Z</time>
      </trkpt>
      <trkpt lat="49.70429" lon="2.06613">
        <ele>97</ele>
        <time>2023-05-22T16:22:25Z</time>
      </trkpt>
      <trkpt lat="49.70424" lon="2.06596">
        <ele>97</ele>
        <time>2023-05-22T16:22:28Z</time>
      </trkpt>
      <trkpt lat="49.70417" lon="2.06581">
        <ele>98</ele>
        <time>2023-05-22T16:22:30Z</time>
      </trkpt>
      <trkpt lat="49.70405" lon="2.06565">
        <ele>99</ele>
        <time>2023-05-22T16:22:33Z</time>
      </trkpt>
      <trkpt lat="49.70318" lon="2.0647">
        <ele>105</ele>
        <time>2023-05-22T16:22:52Z</time>
      </trkpt>
      <trkpt lat="49.70295" lon="2.0645">
        <ele>105</ele>
        <time>2023-05-22T16:22:56Z</time>
      </trkpt>
      <trkpt lat="49.70283" lon="2.06437">
        <ele>106</ele>
        <time>2023-05-22T16:22:59Z</time>
      </trkpt>
      <trkpt lat="49.70259" lon="2.06398">
        <ele>107</ele>
        <time>2023-05-22T16:23:05Z</time>
      </trkpt>
      <trkpt lat="49.70252" lon="2.06397">
        <ele>107</ele>
        <time>2023-05-22T16:23:06Z</time>
      </trkpt>
      <trkpt lat="49.70244" lon="2.06385">
        <ele>107</ele>
        <time>2023-05-22T16:23:08Z</time>
      </trkpt>
      <trkpt lat="49.70226" lon="2.06366">
        <ele>108</ele>
        <time>2023-05-22T16:23:12Z</time>
      </trkpt>
      <trkpt lat="49.70198" lon="2.06352">
        <ele>110</ele>
        <time>2023-05-22T16:23:17Z</time>
      </trkpt>
      <trkpt lat="49.70122" lon="2.06316">
        <ele>111</ele>
        <time>2023-05-22T16:23:32Z</time>
      </trkpt>
      <trkpt lat="49.69981" lon="2.06255">
        <ele>106</ele>
        <time>2023-05-22T16:23:58Z</time>
      </trkpt>
      <trkpt lat="49.69958" lon="2.0625">
        <ele>105</ele>
        <time>2023-05-22T16:24:02Z</time>
      </trkpt>
      <trkpt lat="49.6994" lon="2.06251">
        <ele>104</ele>
        <time>2023-05-22T16:24:05Z</time>
      </trkpt>
      <trkpt lat="49.69924" lon="2.0626">
        <ele>103</ele>
        <time>2023-05-22T16:24:08Z</time>
      </trkpt>
      <trkpt lat="49.69916" lon="2.06278">
        <ele>101</ele>
        <time>2023-05-22T16:24:10Z</time>
      </trkpt>
      <trkpt lat="49.69906" lon="2.0639">
        <ele>96</ele>
        <time>2023-05-22T16:24:23Z</time>
      </trkpt>
      <trkpt lat="49.69901" lon="2.06407">
        <ele>95</ele>
        <time>2023-05-22T16:24:26Z</time>
      </trkpt>
      <trkpt lat="49.69891" lon="2.06421">
        <ele>95</ele>
        <time>2023-05-22T16:24:28Z</time>
      </trkpt>
      <trkpt lat="49.69768" lon="2.06441">
        <ele>97</ele>
        <time>2023-05-22T16:24:50Z</time>
      </trkpt>
      <trkpt lat="49.69676" lon="2.06471">
        <ele>101</ele>
        <time>2023-05-22T16:25:07Z</time>
      </trkpt>
      <trkpt lat="49.69566" lon="2.06473">
        <ele>106</ele>
        <time>2023-05-22T16:25:26Z</time>
      </trkpt>
      <trkpt lat="49.69493" lon="2.06463">
        <ele>111</ele>
        <time>2023-05-22T16:25:39Z</time>
      </trkpt>
      <trkpt lat="49.69435" lon="2.06461">
        <ele>115</ele>
        <time>2023-05-22T16:25:50Z</time>
      </trkpt>
      <trkpt lat="49.69378" lon="2.06464">
        <ele>119</ele>
        <time>2023-05-22T16:26:00Z</time>
      </trkpt>
      <trkpt lat="49.69303" lon="2.06492">
        <ele>123</ele>
        <time>2023-05-22T16:26:14Z</time>
      </trkpt>
      <trkpt lat="49.6924" lon="2.06492">
        <ele>124</ele>
        <time>2023-05-22T16:26:25Z</time>
      </trkpt>
      <trkpt lat="49.69166" lon="2.06474">
        <ele>125</ele>
        <time>2023-05-22T16:26:38Z</time>
      </trkpt>
      <trkpt lat="49.691" lon="2.06465">
        <ele>123</ele>
        <time>2023-05-22T16:26:50Z</time>
      </trkpt>
      <trkpt lat="49.68816" lon="2.06463">
        <ele>123</ele>
        <time>2023-05-22T16:27:40Z</time>
      </trkpt>
      <trkpt lat="49.68789" lon="2.06442">
        <ele>121</ele>
        <time>2023-05-22T16:27:46Z</time>
      </trkpt>
      <trkpt lat="49.68772" lon="2.06413">
        <ele>121</ele>
        <time>2023-05-22T16:27:50Z</time>
      </trkpt>
      <trkpt lat="49.68746" lon="2.06335">
        <ele>123</ele>
        <time>2023-05-22T16:28:00Z</time>
      </trkpt>
      <trkpt lat="49.687" lon="2.06252">
        <ele>123</ele>
        <time>2023-05-22T16:28:13Z</time>
      </trkpt>
      <trkpt lat="49.68662" lon="2.06246">
        <ele>116</ele>
        <time>2023-05-22T16:28:20Z</time>
      </trkpt>
      <trkpt lat="49.68594" lon="2.06265">
        <ele>113</ele>
        <time>2023-05-22T16:28:32Z</time>
      </trkpt>
      <trkpt lat="49.68542" lon="2.06259">
        <ele>116</ele>
        <time>2023-05-22T16:28:41Z</time>
      </trkpt>
      <trkpt lat="49.68468" lon="2.06208">
        <ele>122</ele>
        <time>2023-05-22T16:28:56Z</time>
      </trkpt>
      <trkpt lat="49.68422" lon="2.06104">
        <ele>128</ele>
        <time>2023-05-22T16:29:10Z</time>
      </trkpt>
      <trkpt lat="49.68375" lon="2.06058">
        <ele>135</ele>
        <time>2023-05-22T16:29:20Z</time>
      </trkpt>
      <trkpt lat="49.68358" lon="2.06052">
        <ele>138</ele>
        <time>2023-05-22T16:29:23Z</time>
      </trkpt>
      <trkpt lat="49.68349" lon="2.06059">
        <ele>140</ele>
        <time>2023-05-22T16:29:25Z</time>
      </trkpt>
      <trkpt lat="49.68333" lon="2.06107">
        <ele>146</ele>
        <time>2023-05-22T16:29:31Z</time>
      </trkpt>
      <trkpt lat="49.6832" lon="2.06118">
        <ele>148</ele>
        <time>2023-05-22T16:29:34Z</time>
      </trkpt>
      <trkpt lat="49.68217" lon="2.06195">
        <ele>164</ele>
        <time>2023-05-22T16:29:54Z</time>
      </trkpt>
      <trkpt lat="49.68204" lon="2.06207">
        <ele>166</ele>
        <time>2023-05-22T16:29:57Z</time>
      </trkpt>
      <trkpt lat="49.68081" lon="2.06254">
        <ele>174</ele>
        <time>2023-05-22T16:30:20Z</time>
      </trkpt>
      <trkpt lat="49.67953" lon="2.06307">
        <ele>174</ele>
        <time>2023-05-22T16:30:43Z</time>
      </trkpt>
      <trkpt lat="49.67925" lon="2.06295">
        <ele>174</ele>
        <time>2023-05-22T16:30:48Z</time>
      </trkpt>
      <trkpt lat="49.67821" lon="2.06303">
        <ele>173</ele>
        <time>2023-05-22T16:31:07Z</time>
      </trkpt>
      <trkpt lat="49.67815" lon="2.06303">
        <ele>173</ele>
        <time>2023-05-22T16:31:08Z</time>
      </trkpt>
      <trkpt lat="49.67789" lon="2.0605">
        <ele>174</ele>
        <time>2023-05-22T16:31:37Z</time>
      </trkpt>
      <trkpt lat="49.67784" lon="2.05978">
        <ele>174</ele>
        <time>2023-05-22T16:31:46Z</time>
      </trkpt>
      <trkpt lat="49.67776" lon="2.05932">
        <ele>173</ele>
        <time>2023-05-22T16:31:51Z</time>
      </trkpt>
      <trkpt lat="49.67753" lon="2.05837">
        <ele>172</ele>
        <time>2023-05-22T16:32:03Z</time>
      </trkpt>
      <trkpt lat="49.67649" lon="2.05481">
        <ele>173</ele>
        <time>2023-05-22T16:32:48Z</time>
      </trkpt>
      <trkpt lat="49.67527" lon="2.05129">
        <ele>173</ele>
        <time>2023-05-22T16:33:34Z</time>
      </trkpt>
      <trkpt lat="49.67452" lon="2.04885">
        <ele>174</ele>
        <time>2023-05-22T16:34:05Z</time>
      </trkpt>
      <trkpt lat="49.67434" lon="2.04819">
        <ele>174</ele>
        <time>2023-05-22T16:34:13Z</time>
      </trkpt>
      <trkpt lat="49.67428" lon="2.04766">
        <ele>174</ele>
        <time>2023-05-22T16:34:19Z</time>
      </trkpt>
      <trkpt lat="49.67398" lon="2.04404">
        <ele>176</ele>
        <time>2023-05-22T16:35:01Z</time>
      </trkpt>
      <trkpt lat="49.67349" lon="2.03868">
        <ele>176</ele>
        <time>2023-05-22T16:36:04Z</time>
      </trkpt>
      <trkpt lat="49.67339" lon="2.0374">
        <ele>176</ele>
        <time>2023-05-22T16:36:19Z</time>
      </trkpt>
      <trkpt lat="49.67343" lon="2.03685">
        <ele>176</ele>
        <time>2023-05-22T16:36:25Z</time>
      </trkpt>
      <trkpt lat="49.6744" lon="2.02867">
        <ele>175</ele>
        <time>2023-05-22T16:38:01Z</time>
      </trkpt>
      <trkpt lat="49.67573" lon="2.01795">
        <ele>174</ele>
        <time>2023-05-22T16:40:06Z</time>
      </trkpt>
      <trkpt lat="49.67667" lon="2.01071">
        <ele>179</ele>
        <time>2023-05-22T16:41:31Z</time>
      </trkpt>
      <trkpt lat="49.67664" lon="2.01">
        <ele>181</ele>
        <time>2023-05-22T16:41:40Z</time>
      </trkpt>
      <trkpt lat="49.67656" lon="2.00924">
        <ele>181</ele>
        <time>2023-05-22T16:41:48Z</time>
      </trkpt>
      <trkpt lat="49.67641" lon="2.00841">
        <ele>181</ele>
        <time>2023-05-22T16:41:58Z</time>
      </trkpt>
      <trkpt lat="49.67597" lon="2.00642">
        <ele>182</ele>
        <time>2023-05-22T16:42:23Z</time>
      </trkpt>
      <trkpt lat="49.67508" lon="2.002">
        <ele>181</ele>
        <time>2023-05-22T16:43:16Z</time>
      </trkpt>
      <trkpt lat="49.67501" lon="2.00149">
        <ele>180</ele>
        <time>2023-05-22T16:43:22Z</time>
      </trkpt>
      <trkpt lat="49.67509" lon="2.00063">
        <ele>181</ele>
        <time>2023-05-22T16:43:32Z</time>
      </trkpt>
      <trkpt lat="49.67515" lon="1.99958">
        <ele>181</ele>
        <time>2023-05-22T16:43:44Z</time>
      </trkpt>
      <trkpt lat="49.67511" lon="1.99868">
        <ele>180</ele>
        <time>2023-05-22T16:43:54Z</time>
      </trkpt>
      <trkpt lat="49.67507" lon="1.99837">
        <ele>179</ele>
        <time>2023-05-22T16:43:58Z</time>
      </trkpt>
      <trkpt lat="49.67547" lon="1.99733">
        <ele>179</ele>
        <time>2023-05-22T16:44:12Z</time>
      </trkpt>
      <trkpt lat="49.67589" lon="1.99641">
        <ele>179</ele>
        <time>2023-05-22T16:44:25Z</time>
      </trkpt>
      <trkpt lat="49.67616" lon="1.9959">
        <ele>181</ele>
        <time>2023-05-22T16:44:33Z</time>
      </trkpt>
      <trkpt lat="49.67622" lon="1.9957">
        <ele>181</ele>
        <time>2023-05-22T16:44:35Z</time>
      </trkpt>
      <trkpt lat="49.67622" lon="1.99545">
        <ele>182</ele>
        <time>2023-05-22T16:44:38Z</time>
      </trkpt>
      <trkpt lat="49.67596" lon="1.99252">
        <ele>183</ele>
        <time>2023-05-22T16:45:12Z</time>
      </trkpt>
      <trkpt lat="49.6761" lon="1.99205">
        <ele>182</ele>
        <time>2023-05-22T16:45:18Z</time>
      </trkpt>
      <trkpt lat="49.67765" lon="1.99213">
        <ele>181</ele>
        <time>2023-05-22T16:45:46Z</time>
      </trkpt>
      <trkpt lat="49.67838" lon="1.99184">
        <ele>181</ele>
        <time>2023-05-22T16:45:59Z</time>
      </trkpt>
      <trkpt lat="49.67888" lon="1.99162">
        <ele>182</ele>
        <time>2023-05-22T16:46:08Z</time>
      </trkpt>
      <trkpt lat="49.67896" lon="1.99149">
        <ele>183</ele>
        <time>2023-05-22T16:46:10Z</time>
      </trkpt>
      <trkpt lat="49.67935" lon="1.99049">
        <ele>184</ele>
        <time>2023-05-22T16:46:24Z</time>
      </trkpt>
      <trkpt lat="49.67937" lon="1.99026">
        <ele>183</ele>
        <time>2023-05-22T16:46:26Z</time>
      </trkpt>
      <trkpt lat="49.67929" lon="1.98993">
        <ele>183</ele>
        <time>2023-05-22T16:46:30Z</time>
      </trkpt>
      <trkpt lat="49.68057" lon="1.98753">
        <ele>180</ele>
        <time>2023-05-22T16:47:06Z</time>
      </trkpt>
      <trkpt lat="49.6815" lon="1.98614">
        <ele>179</ele>
        <time>2023-05-22T16:47:29Z</time>
      </trkpt>
      <trkpt lat="49.6817" lon="1.9858">
        <ele>178</ele>
        <time>2023-05-22T16:47:35Z</time>
      </trkpt>
      <trkpt lat="49.68201" lon="1.98544">
        <ele>176</ele>
        <time>2023-05-22T16:47:41Z</time>
      </trkpt>
      <trkpt lat="49.68302" lon="1.98454">
        <ele>171</ele>
        <time>2023-05-22T16:48:02Z</time>
      </trkpt>
      <trkpt lat="49.68354" lon="1.98404">
        <ele>165</ele>
        <time>2023-05-22T16:48:13Z</time>
      </trkpt>
      <trkpt lat="49.68411" lon="1.98343">
        <ele>162</ele>
        <time>2023-05-22T16:48:25Z</time>
      </trkpt>
      <trkpt lat="49.6849" lon="1.98252">
        <ele>166</ele>
        <time>2023-05-22T16:48:43Z</time>
      </trkpt>
      <trkpt lat="49.68556" lon="1.98184">
        <ele>171</ele>
        <time>2023-05-22T16:48:57Z</time>
      </trkpt>
      <trkpt lat="49.68585" lon="1.98144">
        <ele>173</ele>
        <time>2023-05-22T16:49:04Z</time>
      </trkpt>
      <trkpt lat="49.68643" lon="1.98062">
        <ele>175</ele>
        <time>2023-05-22T16:49:18Z</time>
      </trkpt>
      <trkpt lat="49.68711" lon="1.97948">
        <ele>179</ele>
        <time>2023-05-22T16:49:36Z</time>
      </trkpt>
      <trkpt lat="49.68748" lon="1.97872">
        <ele>180</ele>
        <time>2023-05-22T16:49:47Z</time>
      </trkpt>
      <trkpt lat="49.68772" lon="1.9783">
        <ele>180</ele>
        <time>2023-05-22T16:49:53Z</time>
      </trkpt>
      <trkpt lat="49.68777" lon="1.97791">
        <ele>180</ele>
        <time>2023-05-22T16:49:58Z</time>
      </trkpt>
      <trkpt lat="49.68697" lon="1.97689">
        <ele>181</ele>
        <time>2023-05-22T16:50:16Z</time>
      </trkpt>
      <trkpt lat="49.6859" lon="1.97542">
        <ele>181</ele>
        <time>2023-05-22T16:50:42Z</time>
      </trkpt>
      <trkpt lat="49.68546" lon="1.97457">
        <ele>182</ele>
        <time>2023-05-22T16:50:54Z</time>
      </trkpt>
      <trkpt lat="49.68295" lon="1.96791">
        <ele>183</ele>
        <time>2023-05-22T16:52:23Z</time>
      </trkpt>
      <trkpt lat="49.68053" lon="1.96232">
        <ele>186</ele>
        <time>2023-05-22T16:53:40Z</time>
      </trkpt>
      <trkpt lat="49.67961" lon="1.9601">
        <ele>186</ele>
        <time>2023-05-22T16:54:11Z</time>
      </trkpt>
      <trkpt lat="49.67855" lon="1.95825">
        <ele>187</ele>
        <time>2023-05-22T16:54:39Z</time>
      </trkpt>
      <trkpt lat="49.67653" lon="1.9544">
        <ele>186</ele>
        <time>2023-05-22T16:55:36Z</time>
      </trkpt>
      <trkpt lat="49.67623" lon="1.954">
        <ele>186</ele>
        <time>2023-05-22T16:55:43Z</time>
      </trkpt>
      <trkpt lat="49.67568" lon="1.95349">
        <ele>185</ele>
        <time>2023-05-22T16:55:55Z</time>
      </trkpt>
      <trkpt lat="49.67442" lon="1.95262">
        <ele>183</ele>
        <time>2023-05-22T16:56:19Z</time>
      </trkpt>
      <trkpt lat="49.6734" lon="1.95175">
        <ele>179</ele>
        <time>2023-05-22T16:56:40Z</time>
      </trkpt>
      <trkpt lat="49.67312" lon="1.95141">
        <ele>180</ele>
        <time>2023-05-22T16:56:46Z</time>
      </trkpt>
      <trkpt lat="49.67255" lon="1.95061">
        <ele>182</ele>
        <time>2023-05-22T16:57:00Z</time>
      </trkpt>
      <trkpt lat="49.67233" lon="1.95036">
        <ele>183</ele>
        <time>2023-05-22T16:57:05Z</time>
      </trkpt>
      <trkpt lat="49.67202" lon="1.9501">
        <ele>184</ele>
        <time>2023-05-22T16:57:11Z</time>
      </trkpt>
      <trkpt lat="49.67182" lon="1.94998">
        <ele>184</ele>
        <time>2023-05-22T16:57:15Z</time>
      </trkpt>
      <trkpt lat="49.6704" lon="1.94948">
        <ele>186</ele>
        <time>2023-05-22T16:57:41Z</time>
      </trkpt>
      <trkpt lat="49.67002" lon="1.94923">
        <ele>187</ele>
        <time>2023-05-22T16:57:48Z</time>
      </trkpt>
      <trkpt lat="49.66957" lon="1.94872">
        <ele>188</ele>
        <time>2023-05-22T16:57:58Z</time>
      </trkpt>
      <trkpt lat="49.66894" lon="1.94784">
        <ele>190</ele>
        <time>2023-05-22T16:58:13Z</time>
      </trkpt>
      <trkpt lat="49.66828" lon="1.94671">
        <ele>193</ele>
        <time>2023-05-22T16:58:31Z</time>
      </trkpt>
      <trkpt lat="49.66825" lon="1.94662">
        <ele>193</ele>
        <time>2023-05-22T16:58:32Z</time>
      </trkpt>
      <trkpt lat="49.6682" lon="1.94658">
        <ele>193</ele>
        <time>2023-05-22T16:58:33Z</time>
      </trkpt>
      <trkpt lat="49.66815" lon="1.9466">
        <ele>193</ele>
        <time>2023-05-22T16:58:34Z</time>
      </trkpt>
      <trkpt lat="49.66806" lon="1.94641">
        <ele>193</ele>
        <time>2023-05-22T16:58:37Z</time>
      </trkpt>
      <trkpt lat="49.66638" lon="1.94335">
        <ele>195</ele>
        <time>2023-05-22T16:59:23Z</time>
      </trkpt>
      <trkpt lat="49.66584" lon="1.94243">
        <ele>195</ele>
        <time>2023-05-22T16:59:37Z</time>
      </trkpt>
      <trkpt lat="49.66523" lon="1.94133">
        <ele>196</ele>
        <time>2023-05-22T16:59:54Z</time>
      </trkpt>
      <trkpt lat="49.66518" lon="1.94123">
        <ele>196</ele>
        <time>2023-05-22T16:59:55Z</time>
      </trkpt>
      <trkpt lat="49.66515" lon="1.94107">
        <ele>197</ele>
        <time>2023-05-22T16:59:57Z</time>
      </trkpt>
      <trkpt lat="49.6651" lon="1.94103">
        <ele>197</ele>
        <time>2023-05-22T16:59:58Z</time>
      </trkpt>
      <trkpt lat="49.66494" lon="1.94077">
        <ele>197</ele>
        <time>2023-05-22T17:00:02Z</time>
      </trkpt>
    </trkseg>
  </trk>
</gpx>